ICMECAT - a catalog of interplanetary coronal mass ejections




This is the HELIO4CAST interplanetary coronal mass ejection (ICME) catalog, based on in situ magnetic field and bulk plasma observations in the heliosphere.

This is version 2.1, released 2021-November-29, updated 2022-June-15. doi: 10.6084/m9.figshare.6356420

Rules: If this catalog is used for results that are published in peer-reviewed international journals, please contact chris.moestl@outlook.com for possible co-authorship. References for this catalog are Möstl et al. (2017) and Möstl et al. (2020).

The catalog is available as python pandas dataframe (pickle), python numpy structured array (pickle), python numpy structured array (.npy, no pickle), json, csv, xlsx, txt, hdf5, html, html with header, and this is the header txt file with comments, references and parameter descriptions.

Here is a a google colab notebook that demonstrates how to work with this and other catalogs on helioforecast.space in python.
Or simply use these lines to import the ICME catalog into python as a pandas dataframe:

import pandas as pd
url='https://helioforecast.space/static/sync/icmecat/HELIO4CAST_ICMECAT_v21.csv'
icmecat=pd.read_csv(url)

Number of events in ICMECAT: 1114
ICME observatories: Solar Orbiter, BepiColombo, Parker Solar Probe (PSP), Wind, STEREO-A, STEREO-B, MAVEN, Venus Express (VEX), MESSENGER, Ulysses.
Time range: January 1995 - May 2022.

Authors: Christian Möstl, Andreas J. Weiss, Rachel L. Bailey, Martin A. Reiss, Austrian Space Weather Office, Central Institution for Meteorology and Geodynamics (ZAMG), Graz, Austria.
Contributors: Peter Boakes, Alexey Isavnin, Emilia Kilpua, David Stansby, Reka Winslow, Brian Anderson, Lydia Philpott, Vratislav Krupar, Jonathan Eastwood, Benoit Lavraud, Simon Good, Lan Jian, Teresa Nieves-Chinchilla, Cyril Simon Wedlund, Jingnan Guo, Johan von Forstner, Mateja Dumbovic.

Clicking on the icmecat_id will show a data plot for the given event. In the search box, typing e.g. "PSP 2019" will select all events at Parker Solar Probe in the year 2019.
# icmecat_id sc_insitu icme_start_time mo_start_time mo_end_time mo_sc_heliodistance mo_sc_long_heeq mo_sc_lat_heeq icme_duration icme_bmax icme_bmean icme_bstd icme_speed_mean icme_speed_std mo_duration mo_bmax mo_bmean mo_bstd mo_bzmean mo_bzmin mo_bzstd mo_bymean mo_bystd mo_speed_mean mo_speed_std mo_expansion_speed mo_pdyn_mean mo_pdyn_std mo_density_mean mo_density_std mo_temperature_mean mo_temperature_std sheath_speed_mean sheath_speed_std sheath_density_mean sheath_density_std sheath_pdyn_mean sheath_pdyn_std
0 ICME_STEREO_A_MOESTL_20220526_01 STEREO-A 2022-05-26 14:01 2022-05-26 14:01 2022-05-27 06:35 0.9619 -29.0 -4.64 16.57 9.5 8.2 0.4 None None 16.57 9.5 8.2 0.4 -3.2 -8.0 2.1 5.7 1.4 None None None None None None None None None None None None None None None
1 ICME_Wind_MOESTL_20220414_01 Wind 2022-04-14 12:58 2022-04-14 12:58 2022-04-15 02:08 0.9946 0.09 -5.74 13.17 20.8 17.4 2.7 519.0 25.9 13.17 20.8 17.4 2.7 -3.6 -12.5 6.8 3.0 7.3 519.0 25.9 0.2 2.6 1.4 5.5 2.4 232500.5 38636.8 None None None None None None
2 ICME_BEPI_MOESTL_20220413_01 BepiColombo 2022-04-13 03:52 2022-04-13 07:34 2022-04-13 19:43 0.66 -0.65 -2.31 15.85 42.4 33.3 7.1 None None 12.15 42.4 36.4 4.1 1.2 -38.9 18.9 21.2 6.9 None None None None None None None None None None None None None None None
3 ICME_Wind_MOESTL_20220413_01 Wind 2022-04-13 01:46 2022-04-13 01:46 2022-04-13 23:04 0.9941 0.1 -5.85 21.3 11.3 9.9 1.1 467.1 30.4 21.3 11.3 9.9 1.1 -0.3 -7.9 3.8 -0.7 2.9 467.1 30.4 54.1 0.8 0.3 2.1 1.0 178265.2 49003.9 None None None None None None
4 ICME_Wind_MOESTL_20220409_01 Wind 2022-04-09 13:26 2022-04-09 13:26 2022-04-09 23:32 0.9931 0.13 -6.11 10.1 14.8 12.7 1.2 385.7 17.4 10.1 14.8 12.7 1.2 -1.5 -13.0 5.7 -10.3 2.3 385.7 17.4 -35.6 2.8 0.9 11.2 3.8 54257.6 31705.9 None None None None None None
5 ICME_Wind_MOESTL_20220408_01 Wind 2022-04-08 22:26 2022-04-08 22:26 2022-04-09 04:12 0.9929 0.13 -6.15 5.77 11.1 10.3 1.0 356.4 8.2 5.77 11.1 10.3 1.0 0.5 -6.8 2.8 8.6 1.8 356.4 8.2 -7.0 1.0 0.4 4.6 1.8 56302.4 17139.5 None None None None None None
6 ICME_Wind_MOESTL_20220331_01 Wind 2022-03-31 01:40 2022-03-31 14:32 2022-04-01 12:04 0.9904 0.19 -6.65 34.4 23.6 17.1 5.1 518.0 43.0 21.53 23.6 20.1 2.5 1.1 -14.2 9.6 -10.3 9.9 496.6 30.5 63.3 2.2 1.4 5.1 2.9 257240.1 70706.2 553.9 36.5 15.7 10.1 7.6 4.0
7 ICME_BEPI_MOESTL_20220329_01 BepiColombo 2022-03-29 22:52 2022-03-30 08:32 2022-03-30 17:01 0.5857 -10.18 -1.56 18.15 29.5 20.8 3.0 None None 8.48 20.4 18.2 0.6 -6.7 -11.2 2.8 -4.2 2.8 None None None None None None None None None None None None None None None
8 ICME_BEPI_MOESTL_20220326_01 BepiColombo 2022-03-26 14:03 2022-03-26 14:03 2022-03-26 20:54 0.5583 -13.96 -1.26 6.85 26.1 22.9 1.4 None None 6.85 26.1 22.9 1.4 -3.8 -21.8 7.8 -17.9 8.5 None None None None None None None None None None None None None None None
9 ICME_STEREO_A_MOESTL_20220320_01 STEREO-A 2022-03-20 20:50 2022-03-20 20:50 2022-03-21 18:06 0.967 -33.57 -6.96 21.27 14.1 12.2 1.6 None None 21.27 14.1 12.2 1.6 2.8 -13.2 7.8 -6.9 5.1 None None None None None None None None None None None None None None None
10 ICME_Wind_MOESTL_20220313_01 Wind 2022-03-13 10:04 2022-03-13 22:42 2022-03-15 12:10 0.9849 0.25 -7.26 50.1 27.2 17.0 6.1 422.3 39.9 37.47 24.5 15.9 5.9 11.2 -2.8 5.8 -1.1 11.0 405.6 25.6 29.1 1.9 1.2 6.6 4.0 82390.5 40870.1 471.8 32.8 24.0 11.1 8.9 4.1
11 ICME_STEREO_A_MOESTL_20220312_01 STEREO-A 2022-03-12 21:13 2022-03-13 06:29 2022-03-14 11:38 0.9672 -33.85 -6.58 38.42 25.1 17.4 4.9 None None 29.15 25.1 19.2 4.2 -3.2 -15.6 6.2 12.9 6.9 None None None None None None None None None None None None None None None
12 ICME_Wind_MOESTL_20220310_01 Wind 2022-03-10 16:12 2022-03-10 19:10 2022-03-11 00:58 0.9839 0.25 -7.3 8.77 17.2 12.3 2.7 369.3 11.6 5.8 17.2 13.8 1.8 -1.5 -10.9 7.2 -10.6 3.6 363.6 8.5 15.7 3.6 0.7 16.4 3.3 68912.6 6821.8 380.5 8.1 14.9 4.2 3.6 1.1
13 ICME_Wind_MOESTL_20220211_01 Wind 2022-02-11 09:18 2022-02-11 10:44 2022-02-11 17:38 0.9763 0.14 -6.7 8.33 21.0 16.3 2.2 427.6 8.9 6.9 21.0 17.0 1.6 15.8 7.7 2.4 -1.3 5.3 428.9 7.2 8.6 4.6 2.9 15.1 9.4 127334.0 18499.9 421.4 12.8 18.2 6.9 5.3 2.0
14 ICME_Wind_MOESTL_20220209_01 Wind 2022-02-09 20:04 2022-02-10 13:40 2022-02-11 05:52 0.9761 0.13 -6.65 33.8 14.5 11.0 1.9 406.7 12.4 16.2 14.5 12.4 1.1 -3.8 -14.0 6.5 9.2 2.2 404.7 12.7 26.1 1.0 0.3 3.8 1.2 134348.4 21825.1 408.5 11.9 10.6 3.1 3.0 0.9
15 ICME_Wind_MOESTL_20220203_01 Wind 2022-02-03 22:52 2022-02-04 04:12 2022-02-04 13:52 0.9748 0.08 -6.27 15.0 11.8 9.4 2.4 536.5 24.0 9.67 11.8 11.0 0.7 -6.0 -10.0 2.2 7.8 1.6 524.4 19.2 27.3 2.2 0.6 4.8 1.4 42907.8 19192.4 558.4 14.1 13.3 4.4 6.9 2.4
16 ICME_STEREO_A_MOESTL_20220203_01 STEREO-A 2022-02-03 01:47 2022-02-03 01:47 2022-02-03 06:27 0.9667 -34.59 -3.0 4.67 15.3 13.6 0.8 None None 4.67 15.3 13.6 0.8 0.4 -6.1 3.9 12.1 1.7 None None None None None None None None None None None None None None None
17 ICME_STEREO_A_MOESTL_20220202_01 STEREO-A 2022-02-02 03:34 2022-02-02 12:50 2022-02-03 00:52 0.9666 -34.6 -2.94 21.3 20.2 14.5 3.8 None None 12.03 18.6 17.1 1.3 8.3 -10.5 7.4 -3.1 9.0 None None None None None None None None None None None None None None None
18 ICME_Wind_MOESTL_20220201_01 Wind 2022-02-01 21:26 2022-02-02 20:46 2022-02-03 10:40 0.9746 0.07 -6.18 37.23 19.8 10.7 4.0 457.1 36.4 13.9 19.8 14.8 3.0 -7.5 -19.0 6.9 -6.1 8.6 479.2 42.2 -36.9 1.5 0.5 4.1 2.0 224251.1 68451.6 443.9 24.4 9.7 2.4 3.3 1.0
19 ICME_SOLO_MOESTL_20220125_01 SolarOrbiter 2022-01-25 13:05 2022-01-25 14:02 2022-01-27 07:15 0.8937 -17.86 -1.75 42.17 15.1 10.9 2.4 None None 41.22 15.1 10.9 2.4 0.4 -12.5 4.5 -8.9 3.3 None None None None None None None None None None None None None None None
20 ICME_STEREO_A_MOESTL_20220125_01 STEREO-A 2022-01-25 07:24 2022-01-25 19:25 2022-01-26 21:01 0.9662 -34.67 -1.97 37.62 15.2 11.0 3.0 None None 25.6 15.2 12.5 1.8 2.5 -10.0 6.6 -7.1 4.4 None None None None None None None None None None None None None None None
21 ICME_STEREO_A_MOESTL_20220107_01 STEREO-A 2022-01-07 18:02 2022-01-07 18:02 2022-01-08 15:52 0.9649 -34.88 0.4 21.83 7.0 5.1 1.0 None None 21.83 7.0 5.1 1.0 0.0 -1.8 0.6 1.3 1.2 None None None None None None None None None None None None None None None
22 ICME_PSP_MOESTL_20211228_01 PSP 2021-12-28 20:59 2021-12-28 23:44 2021-12-29 18:24 0.7363 -137.58 3.47 21.42 24.1 17.5 3.4 None None 18.67 24.1 17.5 4.0 -14.1 -17.8 2.1 3.2 8.5 None None None None None None None None None None None None None None None
23 ICME_Wind_MOESTL_20211227_01 Wind 2021-12-27 08:30 2021-12-27 21:28 2021-12-28 16:00 0.9734 -0.22 -2.52 31.5 14.7 8.8 1.8 399.5 19.9 18.53 10.5 8.6 1.0 -1.4 -7.0 2.5 -6.8 1.6 402.6 18.8 3.0 0.7 0.3 2.6 1.0 199999.5 81781.9 395.1 20.5 12.8 10.1 3.1 2.3
24 ICME_BEPI_MOESTL_20211224_01 BepiColombo 2021-12-24 18:52 2021-12-25 01:35 2021-12-25 18:33 0.6903 141.41 -2.7 23.68 22.8 16.3 3.3 None None 16.97 22.8 17.6 3.1 6.0 -13.4 6.0 0.4 7.4 None None None None None None None None None None None None None None None
25 ICME_BEPI_MOESTL_20211206_01 BepiColombo 2021-12-06 15:07 2021-12-06 22:32 2021-12-07 13:50 0.6791 134.85 -2.45 22.72 58.7 23.1 5.3 None None 15.3 58.7 24.9 4.7 8.7 -17.8 10.2 18.2 7.2 None None None None None None None None None None None None None None None
26 ICME_Wind_MOESTL_20211127_01 Wind 2021-11-27 21:54 2021-11-28 10:00 2021-11-29 05:56 0.9779 -0.22 1.21 32.03 17.9 10.1 2.6 378.2 12.9 19.93 11.1 8.7 1.7 -2.1 -8.5 4.4 4.8 4.0 371.8 10.0 -1.1 2.2 0.7 9.6 2.9 81947.9 26511.7 388.6 9.9 21.0 4.8 5.3 1.2
27 ICME_STEREO_A_MOESTL_20211124_01 STEREO-A 2021-11-24 15:36 2021-11-25 05:56 2021-11-26 06:51 0.9608 -36.09 5.49 39.25 7.8 6.3 0.7 None None 24.92 7.8 6.5 0.6 -0.2 -3.5 1.4 3.9 2.3 None None None None None None None None None None None None None None None
28 ICME_STEREO_A_MOESTL_20211123_01 STEREO-A 2021-11-23 00:01 2021-11-23 00:01 2021-11-23 15:16 0.9606 -36.2 5.69 15.25 9.4 7.3 1.3 None None 15.25 9.4 7.3 1.3 -2.3 -7.2 4.0 -4.8 2.6 None None None None None None None None None None None None None None None
29 ICME_STEREO_A_MOESTL_20211111_01 STEREO-A 2021-11-11 23:11 2021-11-12 09:18 2021-11-13 09:57 0.9595 -36.73 6.48 34.77 13.1 9.7 2.1 None None 24.65 13.1 10.8 1.2 4.6 -9.3 6.5 -5.7 2.8 None None None None None None None None None None None None None None None
30 ICME_PSP_MOESTL_20211109_01 PSP 2021-11-09 16:22 2021-11-09 18:40 2021-11-10 04:38 0.4229 -50.98 3.79 12.27 59.6 49.0 10.6 None None 9.97 59.6 53.7 4.4 0.5 -38.5 27.8 -34.3 17.5 None None None None None 36.0 21.2 48425.5 23963.6 None None 69.5 9.1 None None
31 ICME_BEPI_MOESTL_20211105_01 BepiColombo 2021-11-05 10:47 2021-11-05 15:30 2021-11-06 04:36 0.4872 108.01 -0.3 17.82 69.7 48.1 15.1 None None 13.1 69.7 52.8 14.1 -0.3 -41.4 11.2 49.6 15.4 None None None None None None None None None None None None None None None
32 ICME_STEREO_A_MOESTL_20211104_01 STEREO-A 2021-11-04 04:15 2021-11-04 04:15 2021-11-04 18:02 0.9588 -37.19 6.93 13.78 22.7 14.9 3.8 None None 13.78 22.7 14.9 3.8 2.6 -6.4 2.2 12.3 2.8 None None None None None None None None None None None None None None None
33 ICME_Wind_MOESTL_20211103_01 Wind 2021-11-03 19:40 2021-11-04 06:30 2021-11-05 04:26 0.9834 -0.04 4.05 32.77 24.4 15.9 2.9 677.8 53.0 21.93 23.5 15.6 2.9 7.0 -17.1 7.2 -5.7 6.8 659.9 52.5 51.7 2.8 2.7 3.6 2.8 288085.2 87364.2 714.0 31.0 9.7 2.6 8.4 2.6
34 ICME_SOLO_MOESTL_20211103_01 SolarOrbiter 2021-11-03 14:03 2021-11-04 01:25 2021-11-04 19:47 0.8464 -0.96 2.04 29.73 41.7 20.6 4.7 None None 18.37 20.5 18.1 0.9 12.3 2.4 2.6 -5.2 7.0 None None None None None None None None None None None None None None None
35 ICME_STEREO_A_MOESTL_20211103_01 STEREO-A 2021-11-03 09:37 2021-11-03 14:56 2021-11-03 22:55 0.9588 -37.22 6.95 13.3 12.6 10.3 1.5 None None 7.98 12.6 10.9 1.4 -4.2 -10.8 4.1 -5.1 3.8 None None None None None None None None None None None None None None None
36 ICME_Wind_MOESTL_20211031_01 Wind 2021-10-31 09:32 2021-10-31 10:04 2021-10-31 14:50 0.9844 0.0 4.45 5.3 12.4 10.2 1.2 432.7 10.0 4.77 12.4 10.3 1.2 -0.1 -10.2 4.2 -6.2 2.3 434.1 9.0 9.2 4.2 1.3 13.2 4.0 144790.6 12237.8 420.3 10.2 15.6 1.3 4.6 0.5
37 ICME_STEREO_A_MOESTL_20211031_01 STEREO-A 2021-10-31 07:57 2021-10-31 12:22 2021-11-01 02:42 0.9585 -37.41 7.07 18.75 11.2 8.4 1.7 None None 14.33 11.2 8.9 1.4 -2.7 -9.8 4.4 -2.5 3.5 None None None None None None None None None None None None None None None
38 ICME_SOLO_MOESTL_20211030_01 SolarOrbiter 2021-10-30 22:01 2021-10-31 02:19 2021-10-31 07:48 0.8203 -2.01 2.13 9.78 17.9 9.6 2.7 None None 5.48 12.7 8.9 1.7 -3.8 -11.1 3.8 -3.3 2.5 None None None None None None None None None None None None None None None
39 ICME_BEPI_MOESTL_20211020_01 BepiColombo 2021-10-20 13:08 2021-10-20 15:15 2021-10-21 00:52 0.345 60.74 2.27 11.73 65.6 39.3 9.6 None None 9.62 65.6 38.7 9.7 11.4 -49.9 16.7 -8.7 15.2 None None None None None None None None None None None None None None None
40 ICME_Wind_MOESTL_20211017_01 Wind 2021-10-17 01:18 2021-10-17 01:18 2021-10-18 09:52 0.9882 0.13 5.75 32.57 12.7 9.8 1.5 353.4 15.4 32.57 12.7 9.8 1.5 1.1 -8.9 5.6 -6.6 2.6 353.4 15.4 15.5 1.5 0.5 7.4 2.3 20909.6 11929.4 None None None None None None
41 ICME_Wind_MOESTL_20211016_01 Wind 2021-10-16 00:08 2021-10-16 00:08 2021-10-17 01:16 0.9885 0.13 5.83 25.13 9.7 8.6 0.6 385.1 15.8 25.13 9.7 8.6 0.6 4.5 -8.1 4.5 3.5 2.8 385.1 15.8 -31.8 1.9 0.9 7.5 3.5 53566.2 29854.6 None None None None None None
42 ICME_SOLO_MOESTL_20211014_01 SolarOrbiter 2021-10-14 23:12 2021-10-15 09:54 2021-10-15 23:11 0.7165 -9.79 2.37 23.98 16.7 12.3 2.8 None None 13.28 16.7 13.5 1.9 -5.0 -14.1 5.3 -9.5 3.4 None None None None None None None None None None None None None None None
43 ICME_STEREO_A_MOESTL_20211012_01 STEREO-A 2021-10-12 12:04 2021-10-13 01:06 2021-10-13 16:29 0.9572 -38.64 7.33 28.42 9.4 6.3 1.4 None None 15.38 6.8 5.9 0.7 0.6 -4.3 2.9 -2.6 1.6 None None None None None None None None None None None None None None None
44 ICME_Wind_MOESTL_20211012_01 Wind 2021-10-12 01:48 2021-10-12 05:00 2021-10-12 08:58 0.9895 0.16 6.11 7.17 16.8 12.8 2.8 453.1 19.3 3.97 16.8 14.6 1.6 6.7 -12.8 8.1 -9.1 3.3 462.5 15.2 -7.2 4.5 2.7 12.6 8.0 244314.8 105293.1 440.7 16.8 27.9 3.6 9.1 1.4
45 ICME_Wind_MOESTL_20211006_01 Wind 2021-10-06 02:20 2021-10-06 07:10 2021-10-07 03:46 0.9911 0.2 6.49 25.43 12.5 8.3 2.4 320.4 11.6 20.6 12.5 9.2 1.5 3.3 -10.8 5.8 -3.9 4.3 319.3 12.5 15.6 3.1 1.2 17.7 6.1 25301.8 8999.6 325.0 4.1 25.1 2.3 4.4 0.4
46 ICME_SOLO_MOESTL_20211005_01 SolarOrbiter 2021-10-05 01:50 2021-10-05 05:09 2021-10-05 11:00 0.6557 -18.74 2.27 9.17 13.9 10.8 1.7 None None 5.85 13.9 11.5 1.6 -1.7 -7.2 3.2 0.2 4.5 None None None None None None None None None None None None None None None
47 ICME_SOLO_MOESTL_20211004_01 SolarOrbiter 2021-10-04 00:31 2021-10-04 07:01 2021-10-04 12:59 0.6507 -19.72 2.24 12.47 14.0 10.0 1.2 None None 5.97 11.1 9.8 0.7 2.5 -4.2 2.9 -7.5 1.4 None None None None None None None None None None None None None None None
48 ICME_Wind_MOESTL_20211001_01 Wind 2021-10-01 12:48 2021-10-01 15:12 2021-10-02 12:50 0.9923 0.23 6.74 24.03 12.9 10.1 2.4 470.5 38.0 21.63 12.9 10.3 2.4 3.9 -6.7 3.9 -0.2 5.0 464.3 34.5 74.0 1.1 1.2 3.4 4.0 26482.1 14305.5 527.0 14.2 3.8 0.9 1.8 0.4
49 ICME_Wind_MOESTL_20210927_01 Wind 2021-09-27 00:20 2021-09-27 00:20 2021-09-27 20:52 0.9935 0.24 6.95 20.53 14.5 9.4 1.9 384.3 8.6 20.53 14.5 9.4 1.9 -0.2 -5.8 3.6 7.6 2.3 384.3 8.6 2.5 2.8 1.0 11.2 3.7 17428.5 8745.6 None None None None None None
50 ICME_PSP_MOESTL_20210926_01 PSP 2021-09-26 08:55 2021-09-26 23:04 2021-09-27 12:36 0.7807 -43.07 3.52 27.68 16.1 12.5 2.7 372.8 28.7 13.53 16.1 14.5 1.4 9.8 -4.3 4.5 1.3 7.8 347.2 14.5 None 2.4 1.1 12.1 5.6 6765.9 2575.4 393.8 18.6 13.8 4.6 3.6 1.2
51 ICME_BEPI_MOESTL_20210925_02 BepiColombo 2021-09-25 19:06 2021-09-25 19:06 2021-09-26 03:19 0.4348 -47.51 -0.06 8.22 64.3 48.1 9.7 None None 8.22 64.3 48.1 9.7 29.7 -2.5 9.2 -31.2 15.7 None None None None None None None None None None None None None None None
52 ICME_BEPI_MOESTL_20210925_01 BepiColombo 2021-09-25 07:45 2021-09-25 07:45 2021-09-25 18:44 0.4392 -48.7 -0.12 10.98 63.9 48.5 11.2 None None 10.98 63.9 48.5 11.2 4.0 -41.6 22.0 34.6 12.9 None None None None None None None None None None None None None None None
53 ICME_Wind_MOESTL_20210917_01 Wind 2021-09-17 01:14 2021-09-17 09:52 2021-09-17 16:26 0.9957 0.25 7.24 15.2 10.2 7.4 1.1 346.9 17.2 6.57 9.7 7.8 0.8 -0.1 -7.6 3.3 -6.1 1.6 355.7 16.8 -10.1 2.4 1.0 11.0 3.6 39636.7 10842.5 340.0 14.1 8.3 2.3 1.6 0.5
54 ICME_BEPI_MOESTL_20210914_01 BepiColombo 2021-09-14 08:41 2021-09-14 19:26 2021-09-15 08:20 0.536 -68.11 -1.0 23.65 39.0 25.7 6.6 None None 12.9 39.0 27.6 5.2 -7.3 -37.1 12.3 -21.5 6.4 None None None None None None None None None None None None None None None
55 ICME_STEREO_A_MOESTL_20210913_01 STEREO-A 2021-09-13 16:58 2021-09-13 16:58 2021-09-14 12:22 0.9563 -40.85 6.02 19.4 7.4 6.1 0.5 None None 19.4 7.4 6.1 0.5 2.7 -3.3 2.9 -1.1 1.9 None None None None None None None None None None None None None None None
56 ICME_PSP_MOESTL_20210912_01 PSP 2021-09-12 15:53 2021-09-12 15:53 2021-09-13 07:39 0.721 -38.06 3.23 15.77 13.9 11.2 1.7 None None 15.77 13.9 11.2 1.7 5.2 -7.0 5.6 -5.1 3.7 None None None None None 18.5 5.4 18280.4 9502.8 None None None None None None
57 ICME_Wind_MOESTL_20210910_02 Wind 2021-09-10 22:34 2021-09-10 22:34 2021-09-11 16:22 0.9971 0.25 7.33 17.8 14.8 12.8 1.2 338.6 12.6 17.8 14.8 12.8 1.2 4.7 -4.6 2.5 -3.5 4.9 338.6 12.6 20.4 1.8 0.4 9.3 2.8 27333.2 11864.7 None None None None None None
58 ICME_Wind_MOESTL_20210910_01 Wind 2021-09-10 10:42 2021-09-10 10:42 2021-09-10 22:32 0.9972 0.25 7.33 11.83 13.1 11.1 1.1 354.5 5.3 11.83 13.1 11.1 1.1 3.6 -8.8 5.0 -7.7 4.0 354.5 5.3 7.6 3.7 1.2 17.5 5.9 20561.3 9714.6 None None None None None None
59 ICME_STEREO_A_MOESTL_20210831_01 STEREO-A 2021-08-31 13:37 2021-08-31 13:37 2021-08-31 22:12 0.9563 -41.9 4.84 8.58 19.8 13.2 4.9 None None 8.58 19.8 13.2 4.9 -7.7 -16.6 6.7 2.2 8.7 None None None None None None None None None None None None None None None
60 ICME_STEREO_A_MOESTL_20210830_01 STEREO-A 2021-08-30 10:08 2021-08-30 16:03 2021-08-31 02:52 0.9564 -41.97 4.74 16.73 21.0 15.4 4.8 None None 10.82 21.0 18.7 1.3 -11.7 -20.3 7.8 -7.5 9.2 None None None None None None None None None None None None None None None
61 ICME_Wind_MOESTL_20210827_01 Wind 2021-08-27 00:14 2021-08-27 12:16 2021-08-28 14:30 0.9998 0.19 7.2 38.27 16.0 10.5 3.6 382.3 21.0 26.23 16.0 12.1 3.0 -5.2 -15.3 6.7 -7.4 4.2 371.2 14.9 None 0.8 0.8 3.6 3.4 28461.0 29259.9 406.3 7.8 13.2 6.0 3.7 1.6
62 ICME_SOLO_MOESTL_20210825_01 SolarOrbiter 2021-08-25 01:06 2021-08-25 01:06 2021-08-25 10:43 0.6326 -76.4 -1.0 9.62 17.4 15.2 1.3 None None 9.62 17.4 15.2 1.3 0.6 -13.5 5.4 -13.2 3.1 None None None None None None None None None None None None None None None
63 ICME_SOLO_MOESTL_20210822_01 SolarOrbiter 2021-08-22 07:49 2021-08-22 13:38 2021-08-23 03:29 0.6447 -79.32 -1.19 19.67 24.8 20.6 3.2 None None 13.85 24.8 22.1 1.9 -11.6 -22.5 6.5 13.8 7.9 None None None None None None None None None None None None None None None
64 ICME_STEREO_A_MOESTL_20210809_01 STEREO-A 2021-08-09 17:28 2021-08-09 23:18 2021-08-10 08:36 0.9572 -43.69 2.32 15.13 10.1 7.8 1.3 None None 9.3 10.1 8.2 1.2 0.3 -6.2 2.7 -7.6 1.3 None None None None None None None None None None None None None None None
65 ICME_Wind_MOESTL_20210806_01 Wind 2021-08-06 10:00 2021-08-06 10:00 2021-08-07 04:16 1.0031 0.04 6.26 18.27 10.4 7.4 1.2 313.9 14.0 18.27 10.4 7.4 1.2 -6.1 -9.0 2.0 0.1 3.4 313.9 14.0 -13.4 2.9 0.7 17.2 3.9 32806.5 13038.9 None None None None None None
66 ICME_Wind_MOESTL_20210802_01 Wind 2021-08-02 08:46 2021-08-03 23:26 2021-08-04 03:04 1.0034 0.02 6.09 42.3 12.8 7.4 1.8 364.8 27.7 3.63 6.2 5.4 0.7 0.4 -4.5 1.8 -3.4 1.2 334.0 10.5 None 0.9 0.3 4.6 1.6 47123.3 6997.9 367.6 27.1 10.5 8.3 2.6 2.3
67 ICME_SOLO_MOESTL_20210726_01 SolarOrbiter 2021-07-26 01:38 2021-07-26 01:38 2021-07-26 11:00 0.807 -97.24 -2.0 9.37 8.3 7.3 0.6 None None 9.37 8.3 7.3 0.6 -0.9 -5.9 2.4 5.1 1.2 None None None None None None None None None None None None None None None
68 ICME_BEPI_MOESTL_20210725_01 BepiColombo 2021-07-25 22:10 2021-07-25 22:10 2021-07-26 10:48 0.7822 -97.36 -2.95 12.63 9.4 8.1 0.9 None None 12.63 9.4 8.1 0.9 -0.6 -6.9 2.8 6.2 1.1 None None None None None None None None None None None None None None None
69 ICME_Wind_MOESTL_20210714_01 Wind 2021-07-14 08:50 2021-07-14 12:42 2021-07-14 17:46 1.0056 -0.15 4.36 8.93 13.0 10.4 2.2 367.4 6.5 5.07 13.0 11.2 1.2 -6.4 -11.4 4.1 7.1 3.2 368.7 7.1 -18.4 5.0 1.3 22.2 5.9 49556.2 30618.4 365.7 5.2 21.4 6.9 4.8 1.6
70 ICME_PSP_MOESTL_20210711_01 PSP 2021-07-11 09:06 2021-07-11 10:25 2021-07-11 18:31 0.6835 48.01 3.82 9.42 25.6 21.0 4.6 323.7 11.8 8.1 25.6 22.5 2.9 -0.5 -21.0 11.8 -14.6 8.1 326.2 10.7 None 5.2 3.9 28.8 18.5 18067.1 15436.7 308.8 6.3 47.4 10.5 7.5 1.7
71 ICME_Wind_MOESTL_20210709_01 Wind 2021-07-09 23:40 2021-07-09 23:40 2021-07-10 07:24 1.006 -0.18 3.89 7.73 12.6 9.2 1.4 330.5 10.8 7.73 12.6 9.2 1.4 0.5 -9.6 5.4 -2.2 3.4 330.5 10.8 1.2 2.4 0.4 12.8 1.5 47464.4 15140.1 None None None None None None
72 ICME_Wind_MOESTL_20210705_01 Wind 2021-07-05 00:36 2021-07-05 07:12 2021-07-06 00:08 1.0062 -0.2 3.39 23.53 8.1 6.2 1.5 338.7 4.8 16.93 8.1 6.9 0.8 -3.5 -7.4 3.7 1.9 3.2 338.7 4.0 6.2 1.6 0.6 8.4 3.0 19493.6 6306.0 338.8 6.5 11.1 1.6 2.1 0.3
73 ICME_SOLO_MOESTL_20210630_01 SolarOrbiter 2021-06-30 22:53 2021-07-01 11:12 2021-07-02 03:43 0.9097 -100.19 -1.71 28.83 14.5 11.7 1.9 None None 16.52 14.5 12.9 1.0 0.2 -14.2 6.4 10.7 2.2 None None None None None None None None None None None None None None None
74 ICME_BEPI_MOESTL_20210630_01 BepiColombo 2021-06-30 22:18 2021-07-01 01:14 2021-07-01 17:24 0.8297 -103.56 -3.8 19.1 17.3 13.9 1.6 None None 16.17 17.3 14.0 1.6 3.5 -15.2 7.1 10.9 2.8 None None None None None None None None None None None None None None None
75 ICME_PSP_MOESTL_20210630_01 PSP 2021-06-30 14:58 2021-06-30 22:11 2021-07-01 17:12 0.7566 50.68 3.72 26.23 30.4 21.3 7.2 382.2 20.3 19.02 30.4 25.7 3.5 2.9 -25.9 19.3 -8.0 14.1 393.5 20.3 None 5.2 2.7 19.4 9.9 21500.0 12623.1 371.4 13.2 39.9 13.4 9.2 3.2
76 ICME_PSP_MOESTL_20210624_01 PSP 2021-06-24 01:28 2021-06-24 08:10 2021-06-25 06:05 0.7781 52.87 3.64 28.62 16.0 11.8 1.5 313.8 18.4 21.92 16.0 12.1 1.4 10.1 2.8 1.7 -4.5 3.2 309.0 17.1 -17.9 5.2 11.8 31.3 51.9 17193.5 14440.7 329.0 13.2 32.8 22.6 6.1 5.6
77 ICME_SOLO_MOESTL_20210622_01 SolarOrbiter 2021-06-22 22:28 2021-06-22 22:28 2021-06-23 10:50 0.9312 -100.11 -1.54 12.37 15.6 13.3 1.3 None None 12.37 15.6 13.3 1.3 0.8 -11.0 8.2 -7.7 4.0 None None None None None None None None None None None None None None None
78 ICME_SOLO_MOESTL_20210621_01 SolarOrbiter 2021-06-21 12:22 2021-06-21 12:22 2021-06-22 01:29 0.934 -100.06 -1.51 13.12 8.1 6.5 0.9 None None 13.12 8.1 6.5 0.9 1.6 -5.2 3.7 1.8 1.9 None None None None None None None None None None None None None None None
79 ICME_STEREO_A_MOESTL_20210619_01 STEREO-A 2021-06-19 20:44 2021-06-20 01:30 2021-06-21 06:29 0.9615 -48.3 -4.21 33.75 11.4 9.4 1.5 None None 28.98 11.4 9.9 0.7 -1.3 -8.9 5.3 7.2 1.9 None None None None None None None None None None None None None None None
80 ICME_PSP_MOESTL_20210612_01 PSP 2021-06-12 06:01 2021-06-12 09:20 2021-06-13 01:12 0.7722 57.05 3.45 19.18 24.3 19.8 2.6 442.1 33.4 15.87 24.3 20.7 1.6 -2.6 -19.4 14.1 -8.8 10.2 443.6 31.0 -7.7 5.9 3.7 18.5 12.4 17773.8 21459.8 434.5 42.7 21.5 15.9 6.5 3.6
81 ICME_Wind_MOESTL_20210611_01 Wind 2021-06-11 00:42 2021-06-11 00:42 2021-06-11 15:00 1.0061 -0.25 0.55 14.3 8.2 7.5 0.4 353.5 9.4 14.3 8.2 7.5 0.4 -5.6 -7.8 2.0 3.6 2.2 353.5 9.4 8.3 1.4 0.2 6.7 1.2 18225.4 7106.1 None None None None None None
82 ICME_PSP_MOESTL_20210610_01 PSP 2021-06-10 04:37 2021-06-10 16:52 2021-06-11 08:53 0.7667 57.61 3.42 28.27 14.8 9.3 2.8 336.7 23.9 16.02 14.8 11.3 1.8 -2.1 -13.6 5.3 5.4 3.1 342.3 20.4 None 4.8 2.1 24.8 12.1 23882.0 19502.2 328.8 26.1 19.9 13.6 3.7 2.7
83 ICME_PSP_MOESTL_20210530_01 PSP 2021-05-30 08:08 2021-05-30 14:18 2021-05-31 00:44 0.7002 60.73 3.16 16.6 37.6 30.9 4.4 616.3 50.3 10.43 37.0 33.1 2.0 -9.6 -35.6 14.3 -24.2 12.3 628.7 28.3 None 13.8 10.4 20.2 15.1 20807.2 9275.1 590.5 71.5 14.2 17.4 8.2 5.3
84 ICME_PSP_MOESTL_20210528_01 PSP 2021-05-28 02:36 2021-05-28 08:10 2021-05-29 11:04 0.6797 61.16 3.09 32.47 22.2 16.9 3.8 370.6 20.7 26.9 22.2 17.1 3.8 6.0 -19.0 9.2 11.5 5.0 370.6 20.7 None 2.0 1.1 8.8 5.3 12807.4 11024.1 None None None None None None
85 ICME_SOLO_MOESTL_20210527_01 SolarOrbiter 2021-05-27 20:14 2021-05-27 20:14 2021-05-28 10:27 0.9503 -98.5 -0.91 14.22 10.8 9.3 0.5 None None 14.22 10.8 9.3 0.5 -0.2 -8.0 5.1 -7.1 1.7 None None None None None None None None None None None None None None None
86 ICME_Wind_MOESTL_20210526_01 Wind 2021-05-26 11:44 2021-05-26 21:20 2021-05-29 04:32 1.0044 -0.19 -1.31 64.8 16.3 8.2 2.9 401.3 21.1 55.2 15.8 7.9 2.5 -0.6 -12.2 4.0 -5.7 2.6 407.2 15.7 -9.8 1.7 1.6 6.1 5.9 32485.8 16525.0 367.3 15.4 24.5 10.3 5.5 2.3
87 ICME_STEREO_A_MOESTL_20210526_01 STEREO-A 2021-05-26 06:11 2021-05-26 06:11 2021-05-27 22:25 0.9639 -50.64 -6.42 40.23 17.6 12.4 2.5 None None 40.23 17.6 12.4 2.5 4.5 -7.8 7.1 -0.7 6.6 None None None None None None None None None None None None None None None
88 ICME_BEPI_MOESTL_20210525_01 BepiColombo 2021-05-25 00:27 2021-05-25 00:27 2021-05-26 04:42 0.7882 -111.9 -3.24 28.25 15.4 11.7 1.8 None None 28.25 15.4 11.7 1.8 -0.7 -13.2 7.7 -6.8 3.3 None None None None None None None None None None None None None None None
89 ICME_Wind_MOESTL_20210512_01 Wind 2021-05-12 05:54 2021-05-12 14:44 2021-05-13 13:38 1.0018 -0.08 -2.99 31.73 23.0 13.5 4.4 459.6 30.6 22.9 19.6 12.9 4.0 5.2 -3.3 3.0 7.0 2.3 465.5 32.8 4.0 1.4 0.9 4.1 2.9 34101.6 29452.4 444.7 16.1 19.9 11.7 6.6 3.8
90 ICME_SOLO_MOESTL_20210510_01 SolarOrbiter 2021-05-10 06:24 2021-05-10 14:01 2021-05-11 11:39 0.9245 -97.52 -0.41 29.25 18.3 15.1 2.0 None None 21.63 18.3 15.2 2.0 6.2 -12.2 8.2 -6.1 7.9 None None None None None None None None None None None None None None None
91 ICME_BEPI_MOESTL_20210508_01 BepiColombo 2021-05-08 18:34 2021-05-09 02:24 2021-05-10 00:22 0.7313 -118.32 -2.24 29.8 18.0 12.4 3.0 None None 21.97 18.0 13.7 2.0 1.7 -11.3 5.5 3.4 7.9 None None None None None None None None None None None None None None None
92 ICME_SOLO_MOESTL_20210506_01 SolarOrbiter 2021-05-06 18:26 2021-05-06 18:26 2021-05-07 15:07 0.9146 -97.43 -0.28 20.68 11.4 10.2 0.7 None None 20.68 11.4 10.2 0.7 0.6 -9.3 5.8 -6.1 2.7 None None None None None None None None None None None None None None None
93 ICME_STEREO_A_MOESTL_20210504_01 STEREO-A 2021-05-04 13:25 2021-05-05 02:43 2021-05-05 17:24 0.9656 -52.47 -7.29 27.98 11.6 7.8 3.2 None None 14.68 11.6 10.5 1.0 -1.2 -10.2 4.5 -8.3 4.5 None None None None None None None None None None None None None None None
94 ICME_BEPI_MOESTL_20210503_01 BepiColombo 2021-05-03 15:59 2021-05-03 18:21 2021-05-04 14:56 0.708 -121.29 -1.77 22.95 25.9 18.1 4.3 None None 20.58 25.9 18.7 4.0 4.5 -13.7 8.7 3.5 4.0 None None None None None None None None None None None None None None None
95 ICME_Wind_MOESTL_20210501_01 Wind 2021-05-01 13:28 2021-05-02 00:24 2021-05-02 14:06 0.9993 0.01 -4.13 24.63 10.6 8.3 1.3 358.3 12.4 13.7 10.6 9.1 1.2 1.4 -6.0 3.3 5.5 2.1 356.5 10.5 25.5 2.1 0.7 9.8 3.4 19954.9 16448.1 360.4 14.1 9.4 1.5 2.1 0.4
96 ICME_Wind_MOESTL_20210429_01 Wind 2021-04-29 18:56 2021-04-30 15:00 2021-05-01 12:44 0.999 0.03 -4.27 41.8 8.9 7.3 0.9 326.4 12.4 21.73 8.6 7.1 0.9 -0.5 -6.6 3.0 -5.1 1.7 327.1 12.0 20.7 2.1 0.8 11.8 4.2 18616.9 7635.4 325.6 12.8 12.7 3.0 2.3 0.6
97 ICME_STEREO_A_MOESTL_20210427_01 STEREO-A 2021-04-27 07:22 2021-04-28 03:04 2021-04-28 18:51 0.9661 -53.0 -7.35 35.48 16.5 10.3 3.4 None None 15.78 16.5 13.7 1.8 -2.9 -11.4 7.4 -8.9 4.9 None None None None None None None None None None None None None None None
98 ICME_Wind_MOESTL_20210424_01 Wind 2021-04-24 22:30 2021-04-25 10:42 2021-04-25 22:46 0.9976 0.07 -4.78 24.27 10.8 7.1 1.2 480.8 12.7 12.07 8.2 6.4 0.8 0.7 -5.9 1.6 1.9 3.3 484.1 12.9 -1.8 1.4 0.6 3.5 1.4 73698.8 38148.9 477.5 11.5 5.5 1.4 2.1 0.6
99 ICME_BEPI_MOESTL_20210419_01 BepiColombo 2021-04-19 11:42 2021-04-19 15:02 2021-04-20 00:05 0.6399 -132.07 -0.18 12.38 27.7 18.4 3.3 None None 9.05 20.0 17.3 2.4 -3.5 -12.8 4.6 -10.7 3.6 None None None None None None None None None None None None None None None
100 ICME_SOLO_MOESTL_20210415_01 SolarOrbiter 2021-04-15 20:21 2021-04-16 09:49 2021-04-17 11:35 0.8373 -98.62 0.44 39.23 15.5 10.7 2.7 None None 25.77 15.5 12.2 2.0 1.1 -11.5 6.5 7.7 5.1 None None None None None None None None None None None None None None None
101 ICME_Wind_MOESTL_20210415_01 Wind 2021-04-15 03:16 2021-04-15 05:48 2021-04-15 13:12 0.9948 0.16 -5.66 9.93 10.5 8.9 1.2 383.4 11.7 7.4 10.5 9.4 0.9 8.6 6.1 0.7 -0.8 1.3 380.6 12.0 34.8 3.0 0.6 12.4 2.7 14736.5 5388.6 391.2 5.4 9.0 3.7 2.3 0.9
102 ICME_BEPI_MOESTL_20210414_01 BepiColombo 2021-04-14 13:49 2021-04-15 00:21 2021-04-15 07:07 0.6171 -136.75 0.44 17.3 33.7 23.5 5.4 None None 6.77 32.5 26.8 2.3 18.8 2.8 3.5 2.2 8.9 None None None None None None None None None None None None None None None
103 ICME_STEREO_A_MOESTL_20210406_01 STEREO-A 2021-04-06 01:27 2021-04-06 06:01 2021-04-06 23:30 0.9671 -54.38 -6.77 22.05 12.5 9.3 1.7 None None 17.48 12.5 9.9 1.2 -3.9 -10.2 3.7 6.0 5.5 None None None None None None None None None None None None None None None
104 ICME_Wind_MOESTL_20210404_01 Wind 2021-04-04 21:52 2021-04-05 10:04 2021-04-06 10:02 0.9918 0.22 -6.35 36.17 9.1 6.7 2.0 319.0 12.7 23.97 9.1 7.9 0.7 0.0 -8.4 4.3 -5.8 2.6 326.2 8.8 -5.1 1.7 0.3 9.5 1.6 27579.3 13312.0 304.9 5.0 17.1 5.4 2.7 0.9
105 ICME_Wind_MOESTL_20210326_01 Wind 2021-03-26 18:00 2021-03-26 18:00 2021-03-27 19:02 0.9887 0.25 -6.86 25.03 6.9 5.9 0.6 370.7 20.3 25.03 6.9 5.9 0.6 1.2 -4.5 1.9 1.3 2.4 370.7 20.3 None 1.1 0.4 4.7 1.4 21218.9 12600.3 None None None None None None
106 ICME_Wind_MOESTL_20210311_01 Wind 2021-03-11 21:40 2021-03-11 21:40 2021-03-12 09:26 0.9838 0.24 -7.28 11.77 9.3 7.6 0.9 358.1 12.8 11.77 9.3 7.6 0.9 -4.9 -7.8 1.3 -2.1 5.0 358.1 12.8 19.8 1.4 0.5 6.8 2.3 41365.6 38603.8 None None None None None None
107 ICME_Wind_MOESTL_20210224_01 Wind 2021-02-24 04:08 2021-02-24 04:08 2021-02-24 15:36 0.9791 0.17 -7.19 11.47 9.5 7.3 1.3 478.2 15.5 11.47 9.5 7.3 1.3 -0.3 -6.5 4.9 3.7 2.7 478.2 15.5 8.2 1.8 0.5 4.7 1.4 25882.7 13127.6 None None None None None None
108 ICME_STEREO_A_MOESTL_20210223_01 STEREO-A 2021-02-23 10:34 2021-02-24 00:58 2021-02-25 05:57 0.9667 -55.67 -3.06 43.38 21.3 8.8 2.9 None None 28.98 11.4 7.5 1.3 -2.0 -10.8 3.8 0.0 1.8 None None None None None None None None None None None None None None None
109 ICME_Wind_MOESTL_20210215_01 Wind 2021-02-15 18:58 2021-02-16 03:18 2021-02-16 14:52 0.9771 0.1 -6.93 19.9 11.1 8.0 1.5 349.0 10.5 11.57 11.1 8.8 1.1 -3.2 -9.6 3.0 -4.3 5.1 355.6 7.3 None 3.1 0.6 14.7 3.0 43458.5 10665.3 340.1 7.0 13.0 3.2 2.5 0.7
110 ICME_PSP_MOESTL_20210212_01 PSP 2021-02-12 11:17 2021-02-12 11:17 2021-02-12 23:59 0.643 161.79 2.97 12.7 24.9 19.9 3.1 404.1 10.3 12.7 24.9 19.9 3.1 -6.1 -24.9 13.6 -11.5 5.8 404.1 10.3 9.4 5.6 2.0 20.6 8.1 25861.0 17103.1 None None None None None None
111 ICME_PSP_MOESTL_20210211_01 PSP 2021-02-11 16:17 2021-02-11 16:17 2021-02-12 00:57 0.6332 161.8 2.93 8.67 18.5 13.0 2.2 367.5 15.7 8.67 18.5 13.0 2.2 -0.7 -6.6 4.5 -9.5 1.3 367.5 15.7 10.2 4.5 1.0 19.7 3.8 19396.6 7577.1 None None None None None None
112 ICME_SOLO_MOESTL_20210115_01 SolarOrbiter 2021-01-15 08:26 2021-01-15 08:26 2021-01-15 16:33 0.5985 144.46 -1.32 8.12 16.5 12.0 2.3 None None 8.12 16.5 12.0 2.3 0.2 -6.5 2.7 3.1 3.2 None None None None None None None None None None None None None None None
113 ICME_STEREO_A_MOESTL_20201231_01 STEREO-A 2020-12-31 08:52 2020-12-31 13:23 2020-12-31 21:52 0.9624 -56.46 3.87 13.0 21.4 14.8 5.9 None None 8.48 21.4 18.8 1.6 1.6 -21.4 13.3 -11.7 4.0 None None None None None None None None None None None None None None None
114 ICME_SOLO_MOESTL_20201219_01 SolarOrbiter 2020-12-19 20:39 2020-12-20 10:15 2020-12-21 04:30 0.7682 125.87 -3.05 31.85 19.0 13.2 3.2 None None 18.25 19.0 15.3 2.2 7.0 -1.0 3.2 -4.5 3.8 None None None None None None None None None None None None None None None
115 ICME_STEREO_A_MOESTL_20201203_01 STEREO-A 2020-12-03 18:04 2020-12-03 22:19 2020-12-04 02:14 0.9596 -57.48 6.41 8.17 11.7 8.1 1.5 None None 3.92 10.1 8.3 0.9 -3.0 -9.3 5.0 0.4 5.2 None None None None None None None None None None None None None None None
116 ICME_STEREO_A_MOESTL_20201201_01 STEREO-A 2020-12-01 07:28 2020-12-01 10:17 2020-12-01 18:30 0.9594 -57.6 6.57 11.03 15.9 10.0 2.6 None None 8.22 15.9 9.7 2.7 1.1 -12.1 7.0 -4.0 3.0 None None None None None None None None None None None None None None None
117 ICME_PSP_MOESTL_20201201_01 PSP 2020-12-01 02:22 2020-12-01 03:13 2020-12-01 08:34 0.8037 -96.85 3.77 6.2 49.3 32.6 6.6 None None 5.35 39.0 32.0 3.8 27.3 14.6 4.6 2.9 10.5 None None None None None None None None None None None None None None None
118 ICME_PSP_MOESTL_20201129_01 PSP 2020-11-29 23:07 2020-11-30 03:05 2020-11-30 16:32 0.8066 -96.47 3.76 17.42 15.2 10.8 1.4 None None 13.45 12.5 10.7 0.8 6.3 -3.1 4.2 2.2 5.0 None None None None None None None None None None None None None None None
119 ICME_BEPI_MOESTL_20201124_01 BepiColombo 2020-11-24 14:36 2020-11-24 18:15 2020-11-25 02:30 0.8292 95.36 -3.84 11.9 18.0 12.8 2.6 None None 8.25 18.0 13.9 2.4 0.4 -17.0 8.2 3.1 6.9 None None None None None None None None None None None None None None None
120 ICME_SOLO_MOESTL_20201112_01 SolarOrbiter 2020-11-12 23:27 2020-11-13 09:33 2020-11-13 18:28 0.9405 122.43 -6.19 19.02 9.5 6.9 1.4 None None 8.92 9.5 8.1 0.6 5.0 1.3 1.8 1.9 4.1 None None None None None None None None None None None None None None None
121 ICME_Wind_MOESTL_20201101_01 Wind 2020-11-01 11:54 2020-11-01 11:54 2020-11-03 07:06 0.984 0.07 4.32 43.2 9.2 6.2 1.7 348.6 16.2 43.2 9.2 6.2 1.7 0.4 -7.0 2.1 -0.7 3.1 348.6 16.2 28.5 0.9 0.3 4.4 1.5 40089.6 21649.2 None None None None None None
122 ICME_PSP_MOESTL_20201028_01 PSP 2020-10-28 13:24 2020-10-28 13:24 2020-10-28 16:41 0.7021 -85.35 3.17 3.28 17.0 16.3 0.4 329.9 24.8 3.28 17.0 16.3 0.4 2.6 -10.2 4.8 13.8 2.4 329.9 24.8 8.1 6.0 17.6 29.0 72.3 28064.1 45267.4 None None None None None None
123 ICME_STEREO_A_MOESTL_20201027_01 STEREO-A 2020-10-27 12:27 2020-10-28 07:58 2020-10-29 06:52 0.9569 -59.63 7.25 42.42 8.7 6.3 1.7 None None 22.9 8.7 7.7 0.7 6.3 2.9 0.8 2.3 2.6 None None None None None None None None None None None None None None None
124 ICME_BEPI_MOESTL_20201010_01 BepiColombo 2020-10-10 04:07 2020-10-10 08:58 2020-10-11 00:56 0.6984 80.36 -1.09 20.82 13.0 9.0 2.0 None None 15.97 12.3 8.3 1.7 0.9 -4.5 1.7 -3.9 2.3 None None None None None None None None None None None None None None None
125 ICME_BEPI_MOESTL_20201008_01 BepiColombo 2020-10-08 10:27 2020-10-09 07:59 2020-10-10 03:27 0.6941 79.54 -0.88 41.0 23.0 12.7 3.3 None None 19.47 15.2 11.9 1.4 -1.4 -11.0 5.1 -8.7 2.8 None None None None None None None None None None None None None None None
126 ICME_Wind_MOESTL_20201005_01 Wind 2020-10-05 06:52 2020-10-05 16:40 2020-10-06 11:58 0.9909 0.24 6.52 29.1 10.8 8.0 2.5 350.6 12.8 19.3 10.8 9.7 0.8 2.4 -8.6 5.2 -6.6 3.7 348.6 13.9 18.1 1.9 0.5 9.7 3.0 16207.4 4839.3 354.7 9.1 11.1 3.9 2.4 0.9
127 ICME_PSP_MOESTL_20200912_01 PSP 2020-09-12 10:23 2020-09-12 13:33 2020-09-12 19:35 0.4734 13.01 3.68 9.2 25.1 15.7 3.1 350.4 24.7 6.03 19.4 15.6 2.5 -1.5 -9.6 3.7 -4.5 3.5 365.0 15.1 6.8 5.7 0.9 26.0 5.0 103848.4 34874.5 322.6 12.2 79.9 24.4 13.7 3.8
128 ICME_STEREO_A_MOESTL_20200910_01 STEREO-A 2020-09-10 02:50 2020-09-10 04:11 2020-09-10 10:54 0.9566 -62.99 3.64 8.07 10.9 9.1 0.8 None None 6.72 10.9 9.2 0.9 4.6 -6.0 4.0 -3.8 4.0 None None None None None None None None None None None None None None None
129 ICME_STEREO_A_MOESTL_20200908_01 STEREO-A 2020-09-08 05:28 2020-09-08 12:36 2020-09-09 01:18 0.9567 -63.11 3.44 19.83 10.8 7.9 2.0 None None 12.7 10.8 9.2 0.6 3.2 -5.4 3.7 -7.0 1.7 None None None None None None None None None None None None None None None
130 ICME_STEREO_A_MOESTL_20200901_01 STEREO-A 2020-09-01 10:41 2020-09-01 10:41 2020-09-02 22:30 0.957 -63.63 2.57 35.82 12.1 9.6 0.9 None None 35.82 12.1 9.6 0.9 4.8 -8.9 4.8 -5.5 3.3 None None None None None None None None None None None None None None None
131 ICME_SOLO_MOESTL_20200821_01 SolarOrbiter 2020-08-21 19:17 2020-08-22 07:37 2020-08-23 02:36 0.8653 130.32 -4.13 31.32 15.8 10.2 2.8 None None 18.98 15.8 11.7 2.2 2.9 -9.7 5.0 -9.2 2.8 None None None None None None None None None None None None None None None
132 ICME_STEREO_A_MOESTL_20200819_01 STEREO-A 2020-08-19 21:11 2020-08-20 04:08 2020-08-21 03:12 0.9578 -64.55 0.97 30.02 20.3 14.4 3.5 None None 23.07 19.6 14.7 3.2 7.9 -13.4 7.4 4.9 8.5 None None None None None None None None None None None None None None None
133 ICME_STEREO_A_MOESTL_20200805_01 STEREO-A 2020-08-05 14:01 2020-08-05 14:01 2020-08-06 17:57 0.9589 -65.7 -0.99 27.93 11.4 9.6 1.3 None None 27.93 11.4 9.6 1.3 -3.7 -10.9 4.8 5.4 5.1 None None None None None None None None None None None None None None None
134 ICME_STEREO_A_MOESTL_20200803_01 STEREO-A 2020-08-03 06:34 2020-08-03 06:34 2020-08-04 10:43 0.9591 -65.89 -1.29 28.15 11.9 9.5 1.0 None None 28.15 11.9 9.5 1.0 -3.9 -10.1 5.3 4.2 5.3 None None None None None None None None None None None None None None None
135 ICME_SOLO_MOESTL_20200725_01 SolarOrbiter 2020-07-25 23:11 2020-07-26 05:59 2020-07-26 23:31 0.7094 121.12 -0.32 24.33 8.5 5.9 1.0 None None 17.53 7.5 5.9 0.8 0.9 -2.0 0.9 1.8 1.2 None None None None None None None None None None None None None None None
136 ICME_Wind_MOESTL_20200724_01 Wind 2020-07-24 01:42 2020-07-24 04:32 2020-07-25 11:36 1.005 -0.15 5.25 33.9 11.3 8.9 1.0 359.9 12.8 31.07 11.3 9.0 1.0 -3.4 -10.3 4.9 -1.3 5.8 363.0 7.5 2.1 2.0 0.6 9.2 2.9 47305.8 19357.2 326.0 8.8 21.6 4.2 3.8 0.7
137 ICME_PSP_MOESTL_20200722_01 PSP 2020-07-22 08:51 2020-07-22 08:51 2020-07-22 23:31 0.7959 20.79 3.51 14.67 10.2 8.0 1.0 None None 14.67 10.2 8.0 1.0 1.9 -5.1 3.0 -5.8 1.4 None None None None None None None None None None None None None None None
138 ICME_Wind_MOESTL_20200713_01 Wind 2020-07-13 20:18 2020-07-13 20:18 2020-07-14 06:18 1.0061 -0.21 4.28 10.0 9.3 8.1 0.7 376.4 10.7 10.0 9.3 8.1 0.7 -6.8 -8.7 1.3 -0.5 3.1 376.4 10.7 3.0 2.1 0.9 8.8 3.5 35036.2 13825.1 None None None None None None
139 ICME_STEREO_A_MOESTL_20200709_01 STEREO-A 2020-07-09 14:17 2020-07-10 05:11 2020-07-11 02:54 0.9615 -68.0 -4.25 36.62 15.3 12.0 2.8 373.6 29.3 21.72 15.3 13.2 1.4 -6.2 -13.9 5.2 8.0 6.4 366.7 34.2 39.4 1.5 0.6 6.3 2.0 37662.9 23522.6 383.5 15.3 11.9 2.9 3.0 0.9
140 ICME_Wind_MOESTL_20200630_01 Wind 2020-06-30 01:12 2020-06-30 20:48 2020-07-01 16:10 1.0069 -0.25 2.9 38.97 6.4 4.5 1.1 333.2 17.8 19.37 6.4 5.3 0.6 -0.8 -3.2 1.1 3.9 1.8 328.1 13.8 3.2 1.2 0.2 6.6 1.3 28822.1 10885.9 338.2 19.8 8.3 1.1 1.6 0.3
141 ICME_BEPI_MOESTL_20200629_01 BepiColombo 2020-06-29 09:44 2020-06-29 15:02 2020-06-30 03:07 0.8813 -3.94 0.66 17.38 11.4 7.7 1.8 None None 12.08 11.4 8.3 1.5 0.5 -7.8 2.8 3.3 4.3 None None None None None None None None None None None None None None None
142 ICME_Wind_MOESTL_20200626_01 Wind 2020-06-26 18:04 2020-06-26 18:04 2020-06-27 00:48 1.007 -0.25 2.43 6.73 9.0 7.2 0.6 336.1 3.4 6.73 9.0 7.2 0.6 -2.1 -7.3 3.2 5.1 1.8 336.1 3.4 None 1.3 0.3 6.7 1.6 32957.0 11322.3 None None None None None None
143 ICME_PSP_MOESTL_20200625_01 PSP 2020-06-25 11:39 2020-06-25 15:59 2020-06-26 08:15 0.5228 19.9 2.43 20.6 27.4 18.7 4.3 302.0 17.2 16.27 27.4 19.6 4.2 -0.4 -23.1 10.3 11.8 8.8 301.8 17.3 22.2 13.9 14.1 92.8 82.8 22983.4 13401.8 302.8 16.9 103.4 238.4 18.5 61.3
144 ICME_PSP_MOESTL_20200623_01 PSP 2020-06-23 03:18 2020-06-23 07:07 2020-06-23 16:52 0.4801 17.74 2.19 13.57 20.1 15.9 2.4 358.7 13.9 9.75 19.2 16.4 2.0 3.9 -6.4 4.3 -7.2 2.0 363.3 7.6 None 7.1 2.7 32.2 12.7 40753.3 17530.8 345.2 18.4 37.1 38.0 7.6 10.2
145 ICME_SOLO_MOESTL_20200608_01 SolarOrbiter 2020-06-08 00:26 2020-06-08 00:26 2020-06-08 11:56 0.525 46.7 5.93 11.5 27.2 23.6 1.6 None None 11.5 27.2 23.6 1.6 4.6 -15.3 9.5 -16.1 3.8 None None None None None None None None None None None None None None None
146 ICME_STEREO_A_MOESTL_20200603_01 STEREO-A 2020-06-03 07:54 2020-06-03 07:54 2020-06-04 09:07 0.965 -71.54 -7.05 25.22 9.9 7.7 1.6 373.4 12.3 25.22 9.9 7.7 1.6 5.2 -4.6 2.9 0.4 3.4 373.4 12.3 10.4 2.2 1.0 9.5 4.5 47060.0 24539.8 None None None None None None
147 ICME_Wind_MOESTL_20200529_01 Wind 2020-05-29 21:20 2020-05-30 04:18 2020-05-30 15:54 1.0051 -0.15 -0.88 18.57 14.3 10.0 2.5 349.7 23.0 11.6 14.3 11.6 1.5 0.9 -12.2 6.5 7.7 4.1 364.3 14.7 -38.6 3.2 1.7 14.6 7.7 55388.1 36931.8 325.5 10.2 21.1 5.7 3.8 1.2
148 ICME_BEPI_MOESTL_20200529_01 BepiColombo 2020-05-29 15:27 2020-05-29 15:27 2020-05-30 05:00 0.9774 -5.24 -2.73 13.55 13.1 11.1 1.0 None None 13.55 13.1 11.1 1.0 0.8 -11.5 7.0 6.1 4.0 None None None None None None None None None None None None None None None
149 ICME_SOLO_MOESTL_20200528_01 SolarOrbiter 2020-05-28 12:45 2020-05-28 19:39 2020-05-29 10:55 0.5644 28.2 3.78 22.17 28.2 20.9 5.7 None None 15.27 28.2 24.1 1.9 -6.6 -26.6 13.3 13.6 12.9 None None None None None None None None None None None None None None None
150 ICME_PSP_MOESTL_20200528_01 PSP 2020-05-28 08:50 2020-05-28 08:50 2020-05-28 14:59 0.3546 147.58 2.49 6.15 46.6 34.5 5.4 292.2 8.4 6.15 46.6 34.5 5.4 18.9 -19.4 13.9 -9.0 23.2 292.2 8.4 8.9 20.8 2.9 145.6 19.5 47732.9 9338.0 None None None None None None
151 ICME_PSP_MOESTL_20200421_01 PSP 2020-04-21 05:16 2020-04-21 05:16 2020-04-21 12:47 0.8282 133.93 3.86 7.52 8.1 6.3 1.0 None None 7.52 8.1 6.3 1.0 -1.6 -7.0 3.6 2.8 2.0 None None None None None None None None None None None None None None None
152 ICME_BEPI_MOESTL_20200420_01 BepiColombo 2020-04-20 03:09 2020-04-20 08:05 2020-04-21 10:08 1.0108 -1.27 -5.52 30.98 16.1 12.7 2.9 None None 26.05 16.1 13.7 1.4 1.5 -14.4 8.3 -4.6 8.6 None None None None None None None None None None None None None None None
153 ICME_Wind_MOESTL_20200420_01 Wind 2020-04-20 01:34 2020-04-20 07:56 2020-04-21 11:18 0.9961 0.19 -5.19 33.73 16.2 12.3 3.4 347.1 11.8 27.37 16.2 13.6 2.2 2.1 -15.4 8.1 -4.9 8.8 346.1 11.9 12.7 2.5 1.3 12.4 6.9 42280.5 37996.7 351.2 10.8 24.9 11.2 5.3 2.7
154 ICME_SOLO_MOESTL_20200419_01 SolarOrbiter 2020-04-19 05:06 2020-04-19 08:59 2020-04-20 09:15 0.8076 -3.98 -3.92 28.15 21.2 17.2 3.8 None None 24.27 21.2 18.4 2.3 1.3 -19.2 11.4 -8.3 10.3 None None None None None None None None None None None None None None None
155 ICME_STEREO_A_MOESTL_20200306_01 STEREO-A 2020-03-06 14:17 2020-03-07 00:48 2020-03-07 15:09 0.9662 -76.81 -1.88 24.87 10.8 8.4 1.6 None None 14.35 10.8 9.6 0.7 -2.3 -10.6 3.9 7.8 1.8 None None None None None None None None None None None None None None None
156 ICME_Wind_MOESTL_20200217_01 Wind 2020-02-17 22:36 2020-02-18 01:58 2020-02-18 21:10 0.9772 0.04 -6.99 22.57 12.6 8.1 2.3 376.1 12.2 19.2 12.6 8.6 2.1 -3.3 -10.6 3.9 5.7 3.5 378.4 11.8 -1.6 2.5 1.1 10.5 4.3 42090.3 16081.6 363.6 3.1 6.6 0.4 1.5 0.1
157 ICME_PSP_MOESTL_20200211_01 PSP 2020-02-11 05:08 2020-02-11 05:08 2020-02-11 11:35 0.4176 140.84 1.77 6.45 45.0 39.7 2.7 336.2 6.2 6.45 45.0 39.7 2.7 6.1 -27.5 16.9 34.0 9.1 336.2 6.2 None 15.4 5.6 81.5 30.7 38968.3 16557.8 None None None None None None
158 ICME_STEREO_A_MOESTL_20200202_01 STEREO-A 2020-02-02 21:28 2020-02-03 03:53 2020-02-04 00:03 0.9635 -77.31 2.42 26.58 11.6 9.6 1.6 None None 20.17 11.6 9.8 1.0 -1.5 -10.5 5.2 0.5 2.9 None None None None None None None None None None None None None None None
159 ICME_Wind_MOESTL_20200104_01 Wind 2020-01-04 09:06 2020-01-04 09:06 2020-01-05 05:10 0.9738 -0.25 -3.38 20.07 10.3 7.6 1.9 367.8 21.6 20.07 10.3 7.6 1.9 -2.3 -5.8 1.4 6.9 2.1 367.8 21.6 24.8 1.1 0.3 5.1 1.5 16040.6 8323.9 None None None None None None
160 ICME_PSP_MOESTL_20191202_01 PSP 2019-12-02 07:26 2019-12-02 07:26 2019-12-02 22:57 0.9051 -92.59 4.08 15.52 9.7 8.4 0.7 None None 15.52 9.7 8.4 0.7 1.2 -5.8 3.7 3.6 3.5 None None None None None None None None None None None None None None None
161 ICME_PSP_MOESTL_20191201_01 PSP 2019-12-01 12:23 2019-12-01 14:12 2019-12-01 22:22 0.9079 -92.33 4.08 9.98 8.4 6.8 1.5 None None 8.17 8.4 7.4 0.6 -0.3 -6.5 2.9 3.8 2.6 None None None None None None None None None None None None None None None
162 ICME_STEREO_A_MOESTL_20191130_01 STEREO-A 2019-11-30 03:48 2019-11-30 12:13 2019-12-01 00:52 0.9576 -79.67 7.34 21.07 9.4 6.2 0.8 484.1 21.6 12.65 7.4 6.5 0.5 2.7 1.2 0.5 -2.9 1.6 484.8 20.2 47.0 1.3 0.4 3.3 0.8 28806.3 7020.1 483.2 23.5 4.6 1.8 1.8 0.7
163 ICME_Wind_MOESTL_20191111_01 Wind 2019-11-11 05:44 2019-11-11 09:12 2019-11-13 00:56 0.9818 0.08 3.35 43.2 13.0 9.8 2.2 342.7 23.6 39.73 13.0 10.2 1.9 0.1 -10.8 5.1 7.9 3.2 342.8 24.6 31.9 2.0 1.2 9.6 4.9 45202.1 24341.8 340.8 6.7 18.9 3.5 3.7 0.8
164 ICME_STEREO_A_MOESTL_20191102_01 STEREO-A 2019-11-02 21:19 2019-11-02 21:19 2019-11-03 19:35 0.9563 -81.37 6.59 22.27 7.4 6.5 0.7 331.3 14.1 22.27 7.4 6.5 0.7 -0.5 -4.6 2.3 5.7 1.5 331.3 14.1 8.4 1.1 0.2 6.0 1.5 20214.5 4605.8 None None None None None None
165 ICME_Wind_MOESTL_20191029_01 Wind 2019-10-29 17:04 2019-10-29 20:52 2019-10-30 23:30 0.9848 0.18 4.69 30.43 14.3 9.5 2.6 382.4 17.2 26.63 14.3 10.2 1.8 -2.9 -7.9 3.1 8.0 2.6 379.2 15.7 12.4 3.6 2.2 15.4 9.7 20206.3 9044.3 404.8 9.0 9.3 1.8 2.6 0.5
166 ICME_STEREO_A_WINSLOW_20191014_01 STEREO-A 2019-10-14 07:44 2019-10-14 11:15 2019-10-14 18:53 0.9563 -82.6 5.03 11.15 17.5 14.0 2.5 428.2 16.4 7.63 17.5 15.4 1.1 4.5 -9.1 7.4 10.6 5.2 435.8 13.8 -15.9 4.0 1.3 12.6 4.2 55883.5 26957.3 411.4 5.6 16.5 5.9 4.7 1.7
167 ICME_PSP_MOESTL_20191013_01 PSP 2019-10-13 19:03 2019-10-13 22:47 2019-10-14 08:14 0.8077 -74.94 3.58 13.18 19.5 15.1 3.2 None None 9.45 19.5 16.6 2.0 1.2 -13.9 7.9 12.4 3.8 None None None None None None None None None None None None None None None
168 ICME_STEREO_A_MOESTL_20191007_01 STEREO-A 2019-10-07 12:55 2019-10-07 17:27 2019-10-08 15:41 0.9564 -83.03 4.33 26.77 12.8 8.4 2.5 310.4 7.7 22.23 12.8 9.1 2.0 0.6 -6.8 3.0 8.5 2.1 309.9 8.2 -11.3 1.8 0.8 11.0 4.4 20163.3 10980.9 312.7 4.2 8.2 0.7 1.3 0.1
169 ICME_PSP_MOESTL_20190910_01 PSP 2019-09-10 10:39 2019-09-10 10:39 2019-09-10 13:41 0.3189 -100.83 0.17 3.03 44.4 41.2 3.3 None None 3.03 44.4 41.2 3.3 11.0 -23.7 10.5 10.2 10.6 None None None None None None None None None None None None None None None
170 ICME_Wind_MOESTL_20190820_01 Wind 2019-08-20 00:40 2019-08-20 03:08 2019-08-20 12:10 1.0008 -0.02 6.94 11.5 10.5 7.8 1.5 377.7 17.3 9.03 10.5 7.9 1.6 1.0 -4.4 1.7 5.3 2.8 382.9 15.1 -16.5 1.9 0.6 7.8 3.0 91508.1 63782.3 358.4 9.8 12.4 2.7 2.7 0.7
171 ICME_STEREO_A_MOESTL_20190803_01 STEREO-A 2019-08-03 17:30 2019-08-04 00:14 2019-08-04 08:31 0.9612 -87.51 -3.88 15.02 11.6 6.1 2.2 450.3 47.0 8.28 9.3 6.3 1.5 0.3 -3.7 0.9 3.9 1.9 487.8 5.8 -0.5 2.5 0.3 6.3 0.8 136876.4 24875.8 403.9 31.7 17.1 4.1 4.6 0.8
172 ICME_PSP_MOESTL_20190731_01 PSP 2019-07-31 16:02 2019-07-31 16:02 2019-07-31 21:27 0.7076 49.89 3.74 5.42 17.5 15.5 1.1 338.4 17.9 5.42 17.5 15.5 1.1 -0.3 -11.2 4.9 11.7 3.2 338.4 17.9 None 5.1 2.1 26.5 11.4 39209.5 22813.1 None None None None None None
173 ICME_PSP_MOESTL_20190725_01 PSP 2019-07-25 08:13 2019-07-25 08:13 2019-07-25 23:06 0.7739 49.91 3.89 14.88 13.7 10.1 1.5 355.4 17.9 14.88 13.7 10.1 1.5 1.6 -6.9 4.1 1.6 5.2 355.4 17.9 None 4.2 1.3 19.9 6.8 77095.2 40614.1 None None None None None None
174 ICME_STEREO_A_MOESTL_20190721_01 STEREO-A 2019-07-21 22:29 2019-07-22 00:57 2019-07-22 15:29 0.9625 -88.63 -5.23 17.0 10.3 7.6 1.7 330.8 11.6 14.53 10.3 8.1 1.1 0.4 -9.3 4.3 6.0 2.4 328.4 10.5 7.1 2.0 0.4 11.1 2.4 37717.8 10273.9 345.5 5.4 22.5 3.9 4.5 0.8
175 ICME_STEREO_A_MOESTL_20190605_01 STEREO-A 2019-06-05 19:12 2019-06-05 19:12 2019-06-06 09:26 0.9664 -93.04 -7.33 14.23 8.2 6.7 0.6 319.5 7.1 14.23 8.2 6.7 0.6 -1.1 -6.5 2.5 -4.3 2.0 319.5 7.1 1.5 1.2 0.3 7.2 1.6 43028.1 12391.4 None None None None None None
176 ICME_STEREO_A_MOESTL_20190527_01 STEREO-A 2019-05-27 14:05 2019-05-27 21:50 2019-05-28 16:46 0.9669 -93.85 -7.17 26.68 8.3 6.8 0.8 373.8 31.2 18.93 7.8 7.0 0.3 1.2 -4.4 1.3 2.6 2.5 359.2 24.7 30.5 1.2 0.2 5.4 0.5 62585.0 15915.3 409.5 7.8 6.3 1.3 1.8 0.4
177 ICME_Wind_MOESTL_20190527_01 Wind 2019-05-26 21:30 2019-05-27 05:40 2019-05-27 23:52 1.0046 -0.03 -1.32 26.37 12.0 9.4 2.3 348.1 18.3 18.2 12.0 10.5 1.4 1.8 -8.4 3.9 9.2 2.6 342.2 18.6 26.9 1.5 0.8 7.3 3.6 32585.0 28033.1 361.4 7.5 18.0 3.6 3.9 0.8
178 ICME_STEREO_A_MOESTL_20190515_01 STEREO-A 2019-05-15 16:20 2019-05-15 21:11 2019-05-16 18:18 0.9673 -94.88 -6.65 25.97 11.6 6.9 2.2 344.1 22.9 21.12 11.6 7.2 2.1 -0.5 -10.1 3.6 3.9 1.9 351.7 17.8 -40.0 1.9 0.6 9.5 3.4 61543.3 23327.8 310.7 7.9 22.0 4.8 3.6 0.8
179 ICME_Wind_MOESTL_20190513_01 Wind 2019-05-13 22:56 2019-05-14 08:30 2019-05-15 18:08 1.002 0.08 -2.83 43.2 15.3 8.7 2.2 479.3 45.2 33.63 9.5 8.0 1.2 4.0 -5.0 4.0 0.9 4.2 473.2 43.3 62.4 2.0 1.0 5.6 3.4 15490.6 10185.6 500.9 45.1 8.5 4.6 3.6 2.2
180 ICME_Wind_MOESTL_20190510_01 Wind 2019-05-10 17:04 2019-05-11 06:28 2019-05-12 14:40 1.0013 0.11 -3.17 45.6 12.3 8.8 1.7 350.6 10.3 32.2 12.0 8.3 1.5 -4.1 -11.7 4.7 0.0 2.5 346.8 7.8 8.1 0.8 0.5 4.0 2.2 29262.7 19048.6 359.4 10.1 17.2 3.0 3.7 0.7
181 ICME_STEREO_A_MOESTL_20190510_01 STEREO-A 2019-05-10 06:46 2019-05-11 05:00 2019-05-12 04:51 0.9673 -95.24 -6.36 46.08 15.9 8.0 2.9 522.3 61.3 23.85 8.3 5.7 0.9 -2.7 -6.1 2.2 -3.9 1.3 471.7 27.0 48.5 1.0 0.4 2.8 0.8 41958.7 16574.2 577.0 35.8 10.1 3.6 5.8 2.5
182 ICME_STEREO_A_MOESTL_20190506_01 STEREO-A 2019-05-06 22:13 2019-05-07 14:18 2019-05-08 11:23 0.9674 -95.51 -6.11 37.17 16.6 13.6 1.4 396.3 15.5 21.08 15.7 13.9 1.2 7.8 -6.0 4.9 9.8 3.7 392.2 11.3 12.0 1.1 0.7 4.4 2.7 65475.5 45279.5 402.0 18.5 9.2 5.3 2.5 1.4
183 ICME_BEPI_MOESTL_20190325_01 BepiColombo 2019-03-25 08:15 2019-03-25 13:21 2019-03-26 12:51 1.0251 21.17 -5.58 28.6 11.5 8.6 1.6 None None 23.5 11.5 9.1 1.0 -3.3 -9.5 5.6 -0.2 5.5 None None None None None None None None None None None None None None None
184 ICME_PSP_MOESTL_20190324_01 PSP 2019-03-24 03:45 2019-03-24 03:45 2019-03-24 17:38 0.3858 -148.82 2.03 13.88 34.0 30.1 2.2 333.1 20.1 13.88 34.0 30.1 2.2 4.9 -23.4 11.7 17.0 7.7 333.1 20.1 None 9.8 2.4 52.4 10.1 40375.0 17986.7 None None None None None None
185 ICME_PSP_MOESTL_20190315_01 PSP 2019-03-15 09:00 2019-03-15 12:11 2019-03-15 17:49 0.5465 -161.32 3.17 8.82 33.4 26.9 6.0 404.1 18.2 5.63 33.4 31.1 1.4 -6.7 -29.2 9.4 24.1 5.7 408.1 11.6 8.5 8.4 2.4 30.2 9.0 23399.7 16991.4 397.1 24.4 49.1 10.7 13.1 3.7
186 ICME_STEREO_A_MOESTL_20190302_01 STEREO-A 2019-03-02 10:00 2019-03-02 17:20 2019-03-05 05:15 0.9642 -98.23 1.51 67.25 8.1 3.8 1.9 326.3 25.5 59.92 7.4 3.5 1.7 -0.6 -4.2 1.2 1.3 2.0 323.5 24.9 29.2 1.1 0.3 6.7 2.0 35306.0 15345.0 348.7 18.7 7.0 1.7 1.4 0.3
187 ICME_STEREO_A_MOESTL_20190213_01 STEREO-A 2019-02-13 11:12 2019-02-13 12:27 2019-02-13 19:38 0.9626 -98.59 3.64 8.43 11.2 9.5 1.4 371.1 11.5 7.18 11.2 10.0 0.8 2.5 -7.3 4.3 -6.3 4.1 368.6 10.1 1.4 2.3 0.7 10.2 2.9 65082.0 29575.2 386.0 6.6 16.1 1.7 4.0 0.6
188 ICME_STEREO_A_MOESTL_20190129_01 STEREO-A 2019-01-29 12:45 2019-01-29 14:29 2019-01-30 05:38 0.961 -98.96 5.22 16.88 12.3 10.0 1.6 464.1 16.9 15.15 12.3 10.3 1.2 2.7 -7.4 4.5 7.8 4.0 461.2 15.2 25.6 2.0 1.2 5.8 3.7 28072.0 13673.9 489.8 4.7 7.7 2.1 3.1 0.9
189 ICME_PSP_MOESTL_20181111_01 PSP 2018-11-11 23:51 2018-11-11 23:51 2018-11-12 05:59 0.2545 178.55 -1.12 6.13 98.9 82.5 12.9 387.1 18.2 6.13 98.9 82.5 12.9 15.2 -37.9 41.9 60.4 26.2 387.1 18.2 -7.2 42.1 12.2 168.5 51.3 73074.1 38992.7 None None None None None None
190 ICME_PSP_MOESTL_20181030_01 PSP 2018-10-30 20:25 2018-10-30 20:25 2018-10-31 08:19 0.2645 24.92 0.12 11.9 84.1 51.4 11.0 325.8 12.1 11.9 84.1 51.4 11.0 -20.8 -72.9 24.4 18.3 16.0 325.8 12.1 None 31.5 6.4 176.7 30.9 57176.8 17212.1 None None None None None None
191 ICME_STEREO_A_MOESTL_20181006_01 STEREO-A 2018-10-06 21:13 2018-10-06 21:13 2018-10-07 17:02 0.9574 -104.83 1.73 19.82 12.7 10.3 2.3 None None 19.82 12.7 10.3 2.3 4.8 -0.9 3.4 3.8 4.6 None None None None None None None None None None None None None None None
192 ICME_STEREO_A_MOESTL_20180916_01 STEREO-A 2018-09-16 09:29 2018-09-16 14:40 2018-09-17 08:43 0.959 -106.01 -0.98 23.23 9.7 7.8 1.4 351.1 19.8 18.05 9.7 8.1 1.4 0.2 -8.7 5.2 4.6 4.1 345.4 18.3 31.9 1.7 0.4 8.6 1.7 48707.8 14864.5 372.5 4.0 12.4 1.7 2.9 0.4
193 ICME_Wind_MOESTL_20180907_01 Wind 2018-09-07 02:36 2018-09-07 05:58 2018-09-07 23:42 0.9968 0.05 7.35 21.1 11.9 5.8 2.4 444.2 29.7 17.73 11.3 5.2 2.0 -0.8 -6.1 1.9 3.1 2.0 448.0 30.7 33.6 1.3 0.7 3.9 1.7 120051.4 101413.5 424.5 11.5 16.1 4.4 4.8 1.1
194 ICME_Wind_MOESTL_20180825_01 Wind 2018-08-25 01:16 2018-08-25 12:48 2018-08-26 11:58 0.9997 -0.06 7.14 34.7 19.1 13.0 4.3 403.2 18.0 23.17 19.1 15.8 2.0 -6.9 -15.8 5.9 -3.5 8.6 406.9 16.2 -2.8 3.4 1.4 12.5 6.1 54513.2 52452.4 395.7 19.0 11.4 4.6 3.1 1.4
195 ICME_Wind_MOESTL_20180811_01 Wind 2018-08-11 00:10 2018-08-11 06:32 2018-08-11 13:10 1.0028 -0.16 6.51 13.0 11.4 7.8 2.0 379.9 14.1 6.63 10.5 7.7 0.9 -0.6 -7.1 4.0 3.4 3.4 391.8 6.1 -0.2 3.8 0.7 14.8 2.3 62049.4 17829.1 367.3 7.7 15.8 6.2 3.6 1.6
196 ICME_STEREO_A_MOESTL_20180807_02 STEREO-A 2018-08-07 19:35 2018-08-07 21:24 2018-08-08 05:02 0.9629 -108.79 -5.56 9.45 10.9 7.9 1.9 317.5 7.8 7.63 10.9 8.6 1.0 1.1 -4.9 3.3 -5.9 2.2 314.4 4.4 4.8 2.6 0.2 15.7 1.3 47168.3 7782.6 328.5 7.1 20.2 1.6 3.6 0.4
197 ICME_STEREO_A_MOESTL_20180807_01 STEREO-A 2018-08-07 12:16 2018-08-07 12:16 2018-08-07 19:35 0.9629 -108.82 -5.59 7.32 10.8 9.7 1.0 331.1 6.9 7.32 10.8 9.7 1.0 -1.0 -7.6 2.8 -7.3 1.2 331.1 6.9 -6.9 2.4 0.3 13.2 2.0 65484.1 18519.0 None None None None None None
198 ICME_Wind_MOESTL_20180716_01 Wind 2018-07-16 04:50 2018-07-16 04:50 2018-07-17 00:00 1.0069 -0.25 4.45 19.17 14.9 9.3 2.3 340.4 11.4 19.17 14.9 9.3 2.3 -1.3 -8.8 4.2 6.4 2.8 340.4 11.4 0.0 3.4 1.2 17.6 5.8 29964.3 20607.1 None None None None None None
199 ICME_STEREO_A_MOESTL_20180710_01 STEREO-A 2018-07-10 15:10 2018-07-10 18:56 2018-07-11 10:44 0.9655 -111.29 -7.2 19.57 16.7 12.0 3.1 335.1 17.2 15.8 16.7 13.2 2.2 -7.6 -16.5 5.2 -4.1 8.2 341.7 13.6 -18.1 3.1 1.5 16.2 8.7 112954.0 74815.7 313.2 6.7 21.3 2.9 3.5 0.6
200 ICME_Wind_MOESTL_20180710_01 Wind 2018-07-10 11:34 2018-07-10 13:00 2018-07-11 06:52 1.0073 -0.24 3.88 19.3 11.8 9.6 1.0 339.5 15.6 17.87 11.6 9.7 0.8 4.8 -7.2 3.4 0.6 4.5 338.4 14.7 21.4 1.5 0.6 8.2 3.8 15489.5 6190.1 352.2 20.1 21.0 6.3 4.4 1.7
201 ICME_STEREO_A_MOESTL_20180709_01 STEREO-A 2018-07-09 07:05 2018-07-09 16:49 2018-07-10 15:10 0.9655 -111.39 -7.22 32.08 10.3 6.2 2.0 292.0 5.9 22.35 10.3 7.2 0.8 2.5 -3.9 3.1 5.3 2.3 290.8 6.3 -3.8 1.3 0.3 9.4 2.2 29216.1 16962.2 294.3 4.1 22.6 8.2 3.3 1.2
202 ICME_Wind_MOESTL_20180606_01 Wind 2018-06-06 12:22 2018-06-06 18:52 2018-06-07 11:06 1.0062 -0.04 -0.02 22.73 11.0 8.8 2.0 408.5 26.1 16.23 11.0 9.8 1.1 3.2 -3.9 3.2 8.1 2.7 396.5 20.8 36.3 1.6 0.5 6.3 2.6 21241.8 14974.8 438.8 5.5 6.9 2.2 2.2 0.7
203 ICME_Wind_MOESTL_20180309_01 Wind 2018-03-09 17:06 2018-03-09 23:16 2018-03-11 00:24 0.982 0.05 -7.29 31.3 15.7 12.9 3.1 409.5 24.5 25.13 15.7 14.1 1.4 2.4 -10.8 6.3 6.0 4.7 404.0 22.3 30.7 2.5 1.6 9.5 6.9 18720.9 9814.0 431.8 20.3 19.3 3.9 6.1 1.3
204 ICME_Wind_MOESTL_20180119_01 Wind 2018-01-19 00:42 2018-01-19 00:42 2018-01-19 12:06 0.9747 -0.25 -4.99 11.4 9.5 7.7 1.0 357.8 11.5 11.4 9.5 7.7 1.0 -1.1 -6.4 4.0 1.2 2.8 357.8 11.5 -2.3 2.5 0.3 11.8 1.4 28784.9 7569.8 None None None None None None
205 ICME_Wind_MOESTL_20171224_01 Wind 2017-12-24 19:30 2017-12-25 00:02 2017-12-25 09:57 0.9752 -0.16 -2.21 14.45 7.1 5.5 1.0 529.0 21.7 9.92 7.1 6.0 0.5 -1.3 -3.2 0.9 1.0 0.9 516.9 12.2 25.3 2.5 0.6 5.7 1.4 71190.3 22175.9 555.1 12.8 4.7 0.6 2.4 0.4
206 ICME_STEREO_A_JIAN_20171207_01 STEREO-A 2017-12-07 22:57 2017-12-08 11:23 2017-12-09 13:53 0.9562 -123.25 6.24 38.93 13.5 7.3 1.8 559.6 56.1 26.5 8.1 6.3 0.8 1.3 -2.7 1.3 -3.9 1.6 557.8 46.6 69.5 2.0 0.8 3.7 1.1 93184.4 61388.7 563.8 73.3 10.9 4.1 5.4 0.8
207 ICME_Wind_MOESTL_20171115_01 Wind 2017-11-15 11:47 2017-11-15 11:47 2017-11-15 19:23 0.9805 0.19 2.81 7.6 14.8 11.1 2.5 421.8 16.6 7.6 14.8 11.1 2.5 -1.9 -9.1 3.4 8.7 3.4 421.8 16.6 -19.8 5.0 2.2 16.5 6.8 28680.5 9066.8 None None None None None None
208 ICME_Wind_MOESTL_20171114_01 Wind 2017-11-14 01:08 2017-11-14 01:08 2017-11-14 14:13 0.9808 0.2 2.99 13.08 9.3 7.6 0.7 377.7 6.4 13.08 9.3 7.6 0.7 2.1 -7.1 3.5 -4.2 1.9 377.7 6.4 1.3 2.6 0.5 10.8 2.0 38917.6 9969.6 None None None None None None
209 ICME_STEREO_A_JIAN_20171021_01 STEREO-A 2017-10-21 03:24 2017-10-21 23:00 2017-10-23 06:58 0.9578 -125.7 1.02 51.57 20.2 11.1 4.0 407.8 31.8 31.97 20.2 10.2 3.7 2.7 -8.5 6.9 1.2 6.7 387.0 22.2 7.9 1.6 0.9 6.1 2.9 89573.5 47399.7 439.7 10.7 24.4 5.0 7.9 1.6
210 ICME_STEREO_A_JIAN_20170919_01 STEREO-A 2017-09-19 02:56 2017-09-19 16:15 2017-09-21 09:30 0.9607 -127.4 -3.2 54.57 30.7 11.0 7.7 713.8 54.7 41.25 22.4 8.0 5.8 -3.8 -21.9 6.4 -1.4 3.9 695.5 49.3 67.2 2.9 1.9 3.7 2.4 74139.1 53381.8 762.3 34.9 22.4 5.8 21.6 5.0
211 ICME_Wind_MOESTL_20170907_01 Wind 2017-09-07 22:28 2017-09-08 11:07 2017-09-08 14:19 0.9963 -0.02 7.36 15.85 32.8 15.5 5.9 758.7 50.2 3.2 17.8 14.7 1.8 -10.1 -16.2 4.8 -9.3 1.7 760.0 16.9 14.3 3.6 1.4 3.8 1.5 36077.0 50512.1 758.4 55.3 3.8 1.6 3.7 1.6
212 ICME_Wind_MOESTL_20170906_01 Wind 2017-09-06 23:02 2017-09-07 06:45 2017-09-07 11:08 0.9966 -0.03 7.36 12.1 17.9 10.4 2.4 542.8 35.2 4.38 12.8 11.2 0.9 -5.9 -9.5 2.4 4.6 3.4 505.5 15.3 9.2 2.6 0.5 6.1 1.1 938199.8 168925.1 563.6 24.3 11.6 2.0 6.2 1.4
213 ICME_STEREO_A_JIAN_20170729_01 STEREO-A 2017-07-29 22:50 2017-07-30 19:20 2017-07-31 22:53 0.9656 -131.08 -7.21 48.05 11.4 7.3 1.5 544.8 50.1 27.55 10.0 7.6 0.9 -0.9 -7.7 3.5 -1.5 3.9 533.0 31.3 49.7 3.6 0.9 7.8 2.6 83279.8 72569.7 561.2 64.6 7.7 4.5 4.2 2.6
214 ICME_STEREO_A_MOESTL_20170725_01 STEREO-A 2017-07-25 05:43 2017-07-25 06:12 2017-07-27 10:49 0.966 -131.57 -7.31 53.1 18.0 5.1 2.0 573.7 115.3 52.62 16.0 5.0 1.7 -0.6 -4.3 1.0 0.1 1.2 571.5 113.9 162.7 1.3 0.8 2.2 0.7 35843.3 24357.1 775.6 19.0 5.5 3.1 5.5 2.9
215 ICME_STEREO_A_MOESTL_20170724_01 STEREO-A 2017-07-24 14:35 2017-07-24 22:19 2017-07-25 04:09 0.966 -131.6 -7.32 13.57 68.3 33.7 17.3 629.5 81.9 5.83 68.3 46.1 12.6 -42.0 -58.7 10.5 14.7 12.5 693.7 19.0 None 4.2 5.3 5.1 6.3 81265.8 170111.3 583.1 78.4 36.7 18.9 23.1 15.4
216 ICME_Wind_MOESTL_20170716_01 Wind 2017-07-16 05:10 2017-07-16 10:03 2017-07-17 14:50 1.0072 -0.23 4.49 33.67 25.8 14.3 4.3 516.8 62.1 28.78 25.8 14.2 4.0 -4.9 -24.7 5.1 -6.0 7.9 534.8 46.1 14.4 2.4 1.3 4.9 2.2 95017.4 115391.1 408.8 25.7 30.7 13.4 8.5 3.5
217 ICME_STEREO_A_JIAN_20170715_01 STEREO-A 2017-07-15 12:00 2017-07-15 19:00 2017-07-16 12:00 0.9666 -132.42 -7.32 24.0 7.3 4.8 1.2 332.6 20.9 17.0 6.9 4.7 1.1 -0.9 -4.5 1.4 1.6 1.6 322.0 13.7 13.2 2.5 0.6 14.0 2.1 48101.3 9600.9 359.7 6.9 20.5 2.5 4.4 0.6
218 ICME_MAVEN_MOESTL_20170704_01 MAVEN 2017-07-04 02:53 2017-07-04 02:53 2017-07-06 09:14 1.6218 -168.34 -2.77 54.35 7.8 4.8 2.1 383.8 26.2 54.35 7.8 4.8 2.1 1.2 -2.9 1.9 -1.8 4.2 383.8 26.2 -19.4 1.0 0.5 4.0 1.5 306506.4 392683.0 None None None None None None
219 ICME_STEREO_A_JIAN_20170602_01 STEREO-A 2017-06-02 04:00 2017-06-02 11:16 2017-06-03 11:30 0.9674 -136.28 -4.79 31.5 19.1 13.4 3.2 386.6 33.0 24.23 17.5 14.0 2.3 0.8 -15.5 9.1 -8.1 4.8 399.0 19.0 -6.5 2.5 1.0 9.5 3.9 118823.6 97039.5 337.6 30.8 28.1 10.8 5.1 1.3
220 ICME_Wind_MOESTL_20170527_01 Wind 2017-05-27 14:43 2017-05-27 20:48 2017-05-29 10:41 1.0047 0.13 -1.18 43.97 23.3 14.5 4.5 361.7 17.6 37.88 23.3 15.8 3.0 -2.5 -23.0 10.8 1.2 9.8 360.1 18.1 -9.0 2.7 1.7 12.1 6.9 56538.0 29429.4 371.8 9.1 48.5 16.0 11.4 4.1
221 ICME_Wind_MOESTL_20170413_01 Wind 2017-04-13 21:56 2017-04-14 00:02 2017-04-14 19:42 0.9927 0.22 -5.72 21.77 8.0 6.8 1.0 405.8 23.1 19.67 8.0 7.1 0.8 -4.8 -7.2 1.2 -0.5 2.6 401.9 20.5 31.4 1.7 0.6 6.3 2.6 18249.9 9797.9 442.5 8.4 7.6 0.8 2.5 0.3
222 ICME_Wind_MOESTL_20170409_01 Wind 2017-04-09 08:32 2017-04-09 09:55 2017-04-10 08:09 0.9912 0.2 -6.06 23.62 9.3 7.5 0.9 455.1 19.7 22.23 9.3 7.7 0.7 -0.1 -5.7 2.8 -5.7 1.7 454.2 19.9 20.4 1.9 0.4 5.5 1.2 19003.6 4988.4 470.3 4.8 8.4 0.5 3.1 0.2
223 ICME_STEREO_A_JIAN_20170408_01 STEREO-A 2017-04-08 16:55 2017-04-08 16:55 2017-04-09 03:44 0.9639 -139.76 2.02 10.82 9.4 7.9 1.2 568.4 8.4 10.82 9.4 7.9 1.2 2.1 -2.7 2.6 2.7 1.7 568.4 8.4 2.5 2.3 1.2 4.3 2.2 117937.2 24511.7 None None None None None None
224 ICME_Wind_MOESTL_20170404_01 Wind 2017-04-04 01:31 2017-04-04 07:34 2017-04-05 02:46 0.9895 0.17 -6.39 25.25 16.5 11.4 2.9 416.8 13.8 19.2 16.5 12.4 2.3 2.8 -13.4 6.0 -9.3 3.8 415.4 15.4 14.3 2.5 1.0 8.7 3.6 131951.2 112744.3 421.2 4.8 15.5 5.5 4.6 1.7
225 ICME_STEREO_A_JIAN_20170324_01 STEREO-A 2017-03-24 16:22 2017-03-24 16:22 2017-03-26 07:12 0.9624 -140.42 3.84 38.83 9.8 7.4 1.4 364.2 21.8 38.83 9.8 7.4 1.4 1.1 -7.8 4.5 -0.6 3.7 364.2 21.8 18.9 2.7 1.0 11.7 3.1 56928.8 16912.1 None None None None None None
226 ICME_MAVEN_MOESTL_20170303_01 MAVEN 2017-03-03 17:46 2017-03-03 17:46 2017-03-05 10:57 1.4763 -110.84 3.01 41.18 14.9 10.9 4.1 345.5 66.0 41.18 14.9 10.9 4.1 -4.1 -11.4 3.3 6.4 3.8 345.5 66.0 97.4 0.7 0.5 3.2 1.1 713452.5 322450.8 None None None None None None
227 ICME_STEREO_A_JIAN_20170226_01 STEREO-A 2017-02-26 23:25 2017-02-26 23:25 2017-02-27 05:30 0.9598 -141.47 6.26 6.08 6.8 3.8 1.3 356.0 4.5 6.08 6.8 3.8 1.3 -0.4 -2.8 1.6 1.0 1.7 356.0 4.5 -11.6 1.6 0.4 7.6 1.9 29834.7 6719.0 None None None None None None
228 ICME_MAVEN_MOESTL_20170119_01 MAVEN 2017-01-19 05:53 2017-01-19 05:53 2017-01-20 23:08 1.4258 -91.69 4.75 41.25 5.5 4.2 1.0 345.7 21.8 41.25 5.5 4.2 1.0 2.0 -0.5 1.8 0.5 2.6 345.7 21.8 21.1 0.5 0.2 2.6 0.8 223914.2 217699.9 None None None None None None
229 ICME_STEREO_A_JIAN_20161029_01 STEREO-A 2016-10-29 11:40 2016-10-29 11:40 2016-10-31 03:20 0.9589 -146.93 -0.72 39.67 24.6 19.8 1.7 406.2 21.3 39.67 24.6 19.8 1.7 4.6 -20.4 13.0 0.8 11.6 406.2 21.3 33.0 2.1 1.2 7.5 3.6 70720.4 44234.2 None None None None None None
230 ICME_Wind_MOESTL_20161012_01 Wind 2016-10-12 21:16 2016-10-13 05:27 2016-10-14 13:51 0.9872 0.18 6.08 40.58 24.7 16.8 6.2 394.7 28.3 32.4 24.7 19.6 3.0 -4.3 -19.4 11.3 -12.4 8.1 386.0 24.6 40.2 1.2 1.0 4.6 3.8 32988.0 21324.8 427.8 11.9 23.4 6.5 7.3 2.3
231 ICME_Wind_MOESTL_20160914_01 Wind 2016-09-14 02:10 2016-09-14 18:01 2016-09-15 16:03 0.9947 -0.05 7.32 37.88 9.4 7.1 1.5 307.9 10.8 22.03 9.4 7.6 1.6 -1.6 -8.5 3.9 -4.6 1.9 305.2 9.3 12.9 1.8 0.5 11.5 3.3 28599.7 7352.8 311.6 11.6 15.6 4.1 2.5 0.6
232 ICME_STEREO_A_JIAN_20160911_01 STEREO-A 2016-09-11 05:53 2016-09-11 05:53 2016-09-12 08:56 0.9636 -149.48 -6.09 27.05 10.9 8.4 1.6 432.2 14.8 27.05 10.9 8.4 1.6 -2.0 -9.0 5.5 4.3 3.8 432.2 14.8 15.6 2.0 0.6 6.5 2.1 42069.4 16145.3 None None None None None None
233 ICME_MAVEN_MOESTL_20160907_01 MAVEN 2016-09-07 18:01 2016-09-08 12:31 2016-09-09 11:41 1.3997 -42.0 3.62 41.67 7.5 5.5 1.6 414.3 18.0 23.17 7.5 5.9 1.2 0.9 -2.3 3.4 -4.2 1.3 410.3 12.6 13.1 1.5 1.0 5.1 3.4 136514.3 33306.2 419.2 22.1 4.4 1.6 1.4 0.6
234 ICME_Wind_MOESTL_20160802_01 Wind 2016-08-02 12:37 2016-08-02 20:19 2016-08-03 02:51 1.0053 -0.25 5.98 14.23 25.1 18.4 4.7 414.7 23.6 6.53 25.1 22.6 1.7 1.0 -14.8 8.3 -20.6 3.0 416.1 8.8 5.1 5.2 1.6 18.0 5.6 53035.2 48753.4 413.6 30.9 23.6 13.5 6.3 2.9
235 ICME_Wind_MOESTL_20160724_01 Wind 2016-07-24 15:29 2016-07-24 21:44 2016-07-25 12:18 1.0067 -0.23 5.27 20.82 12.6 8.3 2.1 437.2 11.3 14.57 11.4 7.4 1.6 -4.0 -6.4 2.3 3.6 3.2 439.7 10.7 -18.5 3.0 1.6 9.4 5.0 33037.8 14067.9 431.0 10.5 13.0 2.7 4.0 0.9
236 ICME_MAVEN_MOESTL_20160721_01 MAVEN 2016-07-21 15:48 2016-07-21 15:48 2016-07-23 07:34 1.446 -24.03 1.04 39.77 7.3 5.7 1.5 543.7 42.3 39.77 7.3 5.7 1.5 2.7 -0.3 1.4 -0.8 2.0 543.7 42.3 62.1 0.5 0.3 1.0 0.4 558630.0 457819.5 None None None None None None
237 ICME_Wind_MOESTL_20160719_01 Wind 2016-07-19 23:01 2016-07-20 01:48 2016-07-20 11:57 1.0072 -0.21 4.85 12.93 34.9 18.9 6.0 522.5 49.2 10.15 27.5 17.9 5.1 -2.0 -14.1 3.5 11.7 7.7 541.9 33.0 -47.8 7.3 2.6 14.7 4.7 200988.5 212765.3 445.4 16.5 40.0 17.9 13.3 5.7
238 ICME_STEREO_A_JIAN_20160702_01 STEREO-A 2016-07-02 20:48 2016-07-02 20:48 2016-07-05 14:11 0.9675 -155.05 -5.71 65.38 18.5 7.6 3.2 543.2 41.5 65.38 18.5 7.6 3.2 -0.5 -16.7 4.1 -2.7 4.7 543.2 41.5 None 2.1 1.2 4.2 2.1 159252.2 90292.7 None None None None None None
239 ICME_Wind_MOESTL_20160417_01 Wind 2016-04-17 02:13 2016-04-17 02:46 2016-04-18 06:59 0.9934 0.19 -5.44 28.77 12.8 7.9 3.0 403.7 15.7 28.22 12.8 8.0 3.0 2.5 -5.5 5.7 2.7 4.4 403.5 15.6 None 4.4 2.4 16.5 9.0 19162.4 5933.0 421.1 3.6 10.4 1.5 3.1 0.4
240 ICME_Wind_MOESTL_20160416_01 Wind 2016-04-16 04:40 2016-04-16 13:51 2016-04-16 21:19 0.9932 0.18 -5.49 16.65 10.0 8.1 1.3 422.8 19.8 7.47 9.8 9.1 0.5 -3.3 -8.1 2.9 4.8 5.1 413.6 9.3 10.0 2.9 0.6 10.1 2.2 48885.1 11292.0 430.2 22.7 6.1 2.9 1.8 0.7
241 ICME_STEREO_A_JIAN_20160415_01 STEREO-A 2016-04-15 01:26 2016-04-15 05:20 2016-04-17 17:25 0.9625 -160.85 3.72 63.98 12.0 9.5 1.5 449.4 38.9 60.08 12.0 9.6 1.4 -3.4 -10.5 5.0 -3.1 5.6 445.1 36.3 49.1 2.9 1.5 8.8 4.9 53384.2 28248.0 513.4 10.5 9.5 1.6 4.2 0.7
242 ICME_Wind_MOESTL_20160414_01 Wind 2016-04-14 06:57 2016-04-14 09:06 2016-04-15 10:08 0.9925 0.17 -5.66 27.18 10.0 7.5 1.5 415.3 41.0 25.03 10.0 7.5 1.5 -1.7 -9.1 3.0 2.3 1.4 409.7 37.7 67.7 1.8 0.4 6.6 1.5 24831.4 10520.7 480.1 8.2 6.5 0.9 2.5 0.4
243 ICME_STEREO_A_JIAN_20160313_01 STEREO-A 2016-03-13 17:40 2016-03-14 02:40 2016-03-15 12:00 0.9593 -162.6 6.6 42.33 20.4 10.6 2.2 518.6 65.5 33.33 12.3 10.2 1.4 3.9 -5.6 2.6 5.7 2.2 500.0 60.6 81.0 2.6 1.8 5.7 3.1 36706.7 21853.5 588.0 21.2 13.4 6.2 7.8 4.0
244 ICME_MAVEN_MOESTL_20160119_01 MAVEN 2016-01-19 01:47 2016-01-19 01:47 2016-01-22 01:58 1.649 64.35 -5.6 72.18 4.9 3.8 0.7 395.9 11.7 72.18 4.9 3.8 0.7 -0.4 -1.8 1.0 -1.6 2.2 395.9 11.7 6.2 0.5 0.2 2.0 0.9 141856.7 34221.3 None None None None None None
245 ICME_Wind_MOESTL_20160118_01 Wind 2016-01-18 21:18 2016-01-19 11:20 2016-01-20 20:22 0.9754 -0.19 -4.99 47.07 17.2 12.7 2.6 358.2 15.1 33.03 17.2 13.9 1.7 0.0 -14.3 8.5 -4.1 5.8 359.0 13.5 23.4 3.5 0.8 16.2 4.0 50266.0 31479.9 356.3 18.1 20.7 3.2 4.4 0.9
246 ICME_STEREO_A_JIAN_20160109_01 STEREO-A 2016-01-09 18:08 2016-01-10 15:30 2016-01-12 12:00 0.9562 -165.56 5.53 65.87 20.0 8.8 3.5 377.2 17.4 44.5 17.1 7.1 2.5 1.2 -9.7 2.9 -1.8 4.3 380.6 15.3 None 1.8 0.8 7.5 3.1 77395.7 33626.4 370.0 19.1 23.7 5.6 5.4 1.4
247 ICME_MAVEN_MOESTL_20160105_01 MAVEN 2016-01-05 17:24 2016-01-05 17:24 2016-01-06 20:28 1.6558 71.97 -5.65 27.07 12.2 7.8 2.5 557.6 43.0 27.07 12.2 7.8 2.5 -0.6 -6.2 4.8 1.3 5.1 557.6 43.0 -21.9 1.6 0.8 2.9 1.4 383954.3 231453.2 None None None None None None
248 ICME_Wind_MOESTL_20151231_01 Wind 2015-12-31 00:19 2015-12-31 18:46 2016-01-01 11:56 0.9751 -0.04 -2.98 35.62 17.1 12.5 2.3 447.0 23.7 17.17 17.1 12.9 2.6 -9.3 -16.1 6.5 2.1 4.0 445.2 16.7 20.5 0.6 0.3 1.9 1.0 71974.2 64316.1 448.7 28.6 17.9 5.0 6.1 1.9
249 ICME_Wind_NASA_20151219_01 Wind 2015-12-19 15:35 2015-12-20 13:40 2015-12-21 23:02 0.9755 0.06 -1.59 55.45 19.7 14.0 3.7 416.7 35.6 33.37 19.7 15.6 2.3 -10.1 -19.0 6.7 7.0 5.8 398.2 17.6 -23.5 2.3 1.8 8.6 6.5 48006.7 33111.2 443.7 37.8 39.0 14.2 12.6 4.1
250 ICME_STEREO_A_JIAN_20151202_01 STEREO-A 2015-12-02 11:33 2015-12-02 12:20 2015-12-03 00:34 0.9579 -167.14 0.97 13.02 23.6 18.4 2.4 465.5 18.4 12.23 23.6 18.5 2.3 -4.9 -9.3 1.6 15.8 1.4 463.6 16.6 13.7 1.4 0.7 3.9 2.1 42845.9 14509.9 495.8 20.8 11.6 5.0 4.7 1.9
251 ICME_Wind_NASA_20151106_01 Wind 2015-11-06 17:46 2015-11-07 07:11 2015-11-08 16:47 0.9814 0.24 3.84 47.02 20.8 15.5 3.1 533.6 64.8 33.6 19.5 15.7 2.9 -2.6 -12.4 7.3 8.1 5.1 502.4 39.5 47.6 0.9 0.3 2.1 0.5 34110.6 33855.8 611.9 47.4 6.6 2.2 4.0 1.1
252 ICME_Wind_NASA_20151024_01 Wind 2015-10-24 17:59 2015-10-25 13:11 2015-10-28 13:11 0.9841 0.19 5.14 91.2 13.0 6.1 1.8 409.9 53.9 72.0 11.4 5.6 1.6 1.1 -2.6 1.8 -0.1 2.5 394.2 50.0 61.2 1.0 0.7 3.6 1.7 34005.8 26814.5 465.6 19.8 13.9 3.3 5.1 1.4
253 ICME_Wind_NASA_20151006_01 Wind 2015-10-06 21:35 2015-10-06 21:35 2015-10-07 10:04 0.9888 0.05 6.55 12.48 19.9 14.5 3.6 423.5 27.3 12.48 19.9 14.5 3.6 -0.2 -10.6 5.4 -6.8 3.3 423.5 27.3 None 4.8 1.3 16.4 5.6 65194.3 29873.9 None None None None None None
254 ICME_Wind_NASA_20150907_01 Wind 2015-09-07 13:05 2015-09-07 23:31 2015-09-09 14:52 0.9971 -0.17 7.35 49.78 21.6 13.7 4.4 491.6 65.6 39.35 21.6 14.7 4.3 1.2 -10.0 8.1 -3.5 8.5 467.6 51.2 71.1 4.8 2.0 12.7 4.0 19619.3 9083.9 581.7 18.1 6.1 1.7 3.5 1.0
255 ICME_STEREO_A_JIAN_20150730_01 STEREO-A 2015-07-30 03:45 2015-07-30 03:45 2015-07-30 18:20 0.9675 -174.28 -6.16 14.58 12.4 10.2 1.8 None None 14.58 12.4 10.2 1.8 1.8 -10.5 6.6 -6.1 4.2 None None None None None None None None None None None None None None None
256 ICME_STEREO_A_JIAN_20150727_01 STEREO-A 2015-07-27 06:30 2015-07-27 06:30 2015-07-27 17:55 0.9675 -174.51 -5.95 11.42 12.3 9.7 1.6 None None 11.42 12.3 9.7 1.6 6.4 -1.3 2.8 3.8 5.6 None None None None None None None None None None None None None None None
257 ICME_Wind_NASA_20150622_01 Wind 2015-06-22 18:07 2015-06-23 02:23 2015-06-24 13:03 1.0077 0.08 1.91 42.93 43.9 13.8 8.9 611.6 56.1 34.67 25.8 10.7 5.9 -2.2 -24.6 9.2 -1.9 4.4 597.7 50.9 55.5 1.3 1.0 2.1 1.4 168249.3 211137.0 669.1 37.3 31.4 15.4 22.9 10.9
258 ICME_Wind_NASA_20150510_01 Wind 2015-05-10 08:23 2015-05-10 11:59 2015-05-11 04:47 0.9998 0.24 -3.23 20.4 14.4 10.5 2.6 363.2 16.3 16.8 14.4 11.1 2.4 -5.4 -12.5 5.0 -4.9 4.7 358.4 13.0 13.5 1.8 0.9 8.2 3.7 50071.0 20809.0 386.4 9.9 9.6 1.2 2.4 0.3
259 ICME_Wind_NASA_20150508_01 Wind 2015-05-08 02:52 2015-05-08 07:11 2015-05-09 10:34 0.9991 0.23 -3.46 31.7 8.2 6.3 0.9 383.8 11.7 27.38 8.2 6.5 0.7 1.4 -2.9 1.8 3.0 0.9 381.8 11.2 -6.8 1.7 0.3 6.9 1.2 15317.1 10945.4 395.6 5.9 19.4 4.3 5.1 1.1
260 ICME_Wind_NASA_20150506_01 Wind 2015-05-06 00:56 2015-05-06 16:48 2015-05-07 14:23 0.9987 0.23 -3.64 37.45 18.6 13.3 2.0 435.9 23.0 21.58 16.3 12.9 1.9 7.1 -4.0 3.1 -7.1 5.4 420.2 13.2 25.5 2.9 1.6 9.4 5.0 26479.2 11491.0 457.3 14.8 18.4 8.3 6.4 2.6
261 ICME_MES_MOESTL_20150422_01 MESSENGER 2015-04-22 00:49 2015-04-22 05:22 2015-04-22 18:09 0.3093 -118.9 2.78 17.33 62.4 47.2 5.7 None None 12.78 57.9 46.3 5.2 -0.6 -28.2 8.9 2.7 10.1 None None None None None None None None None None None None None None None
262 ICME_Wind_NASA_20150409_01 Wind 2015-04-09 09:09 2015-04-09 23:02 2015-04-11 09:36 0.9905 0.06 -6.04 48.45 20.8 14.1 3.8 387.6 27.5 34.57 20.8 15.2 3.9 -1.8 -13.3 10.2 -1.0 10.9 391.5 30.9 9.2 4.3 3.9 15.7 8.2 32057.2 16181.2 377.6 10.2 16.9 5.9 4.0 1.5
263 ICME_MES_MOESTL_20150407_01 MESSENGER 2015-04-07 23:31 2015-04-08 02:04 2015-04-08 08:55 0.345 171.02 2.22